UAL949 EGLL-KSFO
Flight info
| Callsign | UAL949 |
|---|---|
| Flight time | N/A |
| Altitude | 34000 |
| Route | CPT L9 DIDZA N14 OKTAD DCT MEDOG DCT VATRY DCT PIKIL/M084F340 DCT 57N020W 57N030W 57N040W 56N050W DCT JANJO/N0486F360 DCT JOVIE DCT DUSMA DCT YRL DCT MOT/N0484F380 DCT SWTHN Q121 PARZZ Q138 FIMUV DCT LEGGS BDEGA4 |
| Aircraft | B77W/H-SDE1E2E3FGHIJ2J3J4J5M1RWXY/LB1D1 |
Departure
| Time | N/A |
|---|---|
| Airport | London Heathrow Airport (EGLL) |
Arrival
| Time | 2026-05-04 18:58 |
|---|---|
| Airport | San Francisco International Airport (KSFO) |
| Time | Latitude | Longitude | Altitude | Speed | Heading |
|---|---|---|---|---|---|
| 2026-05-04 08:10 | 51.71166 | -1.78186 | 22424 ft | 431 kts | 275° |
| 2026-05-04 08:11 | 51.71472 | -1.82996 | 22964 ft | 434 kts | 275° |
| 2026-05-04 08:11 | 51.72627 | -1.92650 | 23979 ft | 442 kts | 283° |
| 2026-05-04 08:11 | 51.73381 | -1.97482 | 24478 ft | 446 kts | 283° |
| 2026-05-04 08:12 | 51.74133 | -2.02338 | 24972 ft | 448 kts | 283° |
| 2026-05-04 08:12 | 51.74881 | -2.07246 | 25441 ft | 451 kts | 282° |
| 2026-05-04 08:12 | 51.75619 | -2.12169 | 25886 ft | 454 kts | 282° |
| 2026-05-04 08:12 | 51.76355 | -2.17152 | 26322 ft | 457 kts | 282° |
| 2026-05-04 08:13 | 51.77090 | -2.22165 | 26743 ft | 460 kts | 282° |
| 2026-05-04 08:13 | 51.77829 | -2.27214 | 27149 ft | 463 kts | 282° |
| 2026-05-04 08:13 | 51.78569 | -2.32287 | 27538 ft | 466 kts | 282° |
| 2026-05-04 08:13 | 51.79311 | -2.37393 | 27920 ft | 468 kts | 282° |
| 2026-05-04 08:14 | 51.80056 | -2.42520 | 28273 ft | 471 kts | 282° |
| 2026-05-04 08:14 | 51.80804 | -2.47685 | 28609 ft | 473 kts | 282° |
| 2026-05-04 08:14 | 51.81555 | -2.52885 | 28935 ft | 476 kts | 282° |
| 2026-05-04 08:16 | 51.86511 | -2.89615 | 31316 ft | 480 kts | 281° |
| 2026-05-04 08:16 | 51.87211 | -2.94894 | 31638 ft | 481 kts | 281° |
| 2026-05-04 08:16 | 51.87912 | -3.00181 | 31951 ft | 480 kts | 281° |
| 2026-05-04 08:17 | 51.88612 | -3.05472 | 32234 ft | 481 kts | 281° |
| 2026-05-04 08:17 | 51.89306 | -3.10762 | 32519 ft | 481 kts | 281° |
| 2026-05-04 08:17 | 51.89999 | -3.16056 | 32801 ft | 481 kts | 281° |
| 2026-05-04 08:17 | 51.90689 | -3.21344 | 33079 ft | 481 kts | 281° |
| 2026-05-04 08:19 | 51.96093 | -3.58277 | 34012 ft | 483 kts | 293° |
| 2026-05-04 08:19 | 51.97546 | -3.63189 | 34012 ft | 481 kts | 298° |
| 2026-05-04 08:20 | 52.00669 | -3.72768 | 34019 ft | 479 kts | 298° |
| 2026-05-04 08:20 | 52.03774 | -3.82339 | 34014 ft | 480 kts | 298° |
| 2026-05-04 08:21 | 52.06853 | -3.91973 | 34013 ft | 480 kts | 297° |
| 2026-05-04 08:21 | 52.09907 | -4.01622 | 34016 ft | 481 kts | 297° |
| 2026-05-04 08:22 | 52.12967 | -4.11329 | 34014 ft | 482 kts | 297° |
| 2026-05-04 08:24 | 52.20781 | -4.36274 | 34010 ft | 484 kts | 297° |
| 2026-05-04 08:24 | 52.23829 | -4.46062 | 34007 ft | 484 kts | 297° |
| 2026-05-04 08:25 | 52.26349 | -4.54206 | 34008 ft | 483 kts | 297° |
| 2026-05-04 08:25 | 52.29369 | -4.63992 | 34015 ft | 481 kts | 297° |
| 2026-05-04 08:27 | 52.41342 | -5.03166 | 34028 ft | 481 kts | 297° |
| 2026-05-04 08:28 | 52.44312 | -5.12987 | 34046 ft | 482 kts | 298° |
| 2026-05-04 08:28 | 52.47288 | -5.22854 | 34029 ft | 483 kts | 297° |
| 2026-05-04 08:29 | 52.50230 | -5.32667 | 34045 ft | 483 kts | 297° |
| 2026-05-04 08:31 | 52.64163 | -5.70239 | 34049 ft | 482 kts | 307° |
| 2026-05-04 08:33 | 52.79691 | -6.06313 | 34055 ft | 481 kts | 307° |
| 2026-05-04 08:35 | 52.95022 | -6.42514 | 34074 ft | 480 kts | 307° |
| 2026-05-04 08:35 | 52.98825 | -6.51582 | 34068 ft | 479 kts | 307° |
| 2026-05-04 08:37 | 53.12099 | -6.83446 | 34076 ft | 479 kts | 307° |
| 2026-05-04 08:38 | 53.15874 | -6.92584 | 34072 ft | 479 kts | 307° |
| 2026-05-04 08:38 | 53.19647 | -7.01749 | 34073 ft | 479 kts | 307° |
| 2026-05-04 08:40 | 53.34597 | -7.38422 | 34081 ft | 479 kts | 307° |
| 2026-05-04 08:41 | 53.38335 | -7.47684 | 34086 ft | 480 kts | 307° |
| 2026-05-04 08:41 | 53.42072 | -7.56946 | 34077 ft | 479 kts | 307° |
| 2026-05-04 08:42 | 53.45792 | -7.66207 | 34099 ft | 479 kts | 307° |
| 2026-05-04 08:42 | 53.49505 | -7.75495 | 34091 ft | 478 kts | 307° |
| 2026-05-04 08:43 | 53.52477 | -7.82961 | 34095 ft | 478 kts | 306° |
| 2026-05-04 08:44 | 53.55972 | -7.91769 | 34091 ft | 477 kts | 306° |
| 2026-05-04 08:46 | 53.70611 | -8.28978 | 34104 ft | 476 kts | 306° |
| 2026-05-04 08:46 | 53.74252 | -8.38314 | 34104 ft | 477 kts | 306° |
| 2026-05-04 08:47 | 53.77896 | -8.47687 | 34099 ft | 477 kts | 306° |
| 2026-05-04 08:47 | 53.81532 | -8.57085 | 34104 ft | 477 kts | 306° |
| 2026-05-04 08:48 | 53.85154 | -8.66487 | 34106 ft | 477 kts | 306° |
| 2026-05-04 08:48 | 53.88777 | -8.75917 | 34104 ft | 478 kts | 306° |
| 2026-05-04 08:49 | 53.92394 | -8.85374 | 34088 ft | 478 kts | 306° |
| 2026-05-04 08:50 | 54.04999 | -9.18613 | 34116 ft | 476 kts | 305° |
| 2026-05-04 08:51 | 54.08570 | -9.28103 | 34108 ft | 475 kts | 305° |
| 2026-05-04 08:51 | 54.12117 | -9.37569 | 34111 ft | 474 kts | 305° |
| 2026-05-04 08:52 | 54.15654 | -9.47048 | 34110 ft | 473 kts | 305° |
| 2026-05-04 08:52 | 54.19173 | -9.56513 | 34110 ft | 473 kts | 305° |
| 2026-05-04 08:54 | 54.33192 | -9.94587 | 34110 ft | 475 kts | 304° |
| 2026-05-04 08:55 | 54.36690 | -10.04177 | 34102 ft | 475 kts | 304° |
| 2026-05-04 08:55 | 54.40188 | -10.13799 | 34100 ft | 475 kts | 304° |
| 2026-05-04 09:01 | 54.76324 | -11.15521 | 34101 ft | 472 kts | 303° |
| 2026-05-04 09:01 | 54.79701 | -11.25254 | 34099 ft | 472 kts | 303° |
| 2026-05-04 09:02 | 54.83080 | -11.35011 | 34103 ft | 472 kts | 302° |
| 2026-05-04 09:02 | 54.86451 | -11.44804 | 34101 ft | 473 kts | 302° |
| 2026-05-04 09:03 | 54.88901 | -11.51937 | 34101 ft | 473 kts | 302° |
| 2026-05-04 09:04 | 54.92228 | -11.61659 | 34102 ft | 473 kts | 302° |
| 2026-05-04 09:04 | 54.95583 | -11.71507 | 34101 ft | 473 kts | 302° |
| 2026-05-04 09:05 | 54.98932 | -11.81374 | 34104 ft | 473 kts | 302° |
| 2026-05-04 09:05 | 55.02271 | -11.91244 | 34101 ft | 473 kts | 302° |
| 2026-05-04 09:06 | 55.05596 | -12.01125 | 34102 ft | 472 kts | 302° |
| 2026-05-04 09:08 | 55.18764 | -12.40652 | 34083 ft | 471 kts | 301° |
| 2026-05-04 09:08 | 55.22043 | -12.50598 | 34085 ft | 471 kts | 301° |
| 2026-05-04 09:09 | 55.24772 | -12.58902 | 34086 ft | 471 kts | 300° |
| 2026-05-04 09:09 | 55.28025 | -12.68837 | 34080 ft | 470 kts | 300° |
| 2026-05-04 09:10 | 55.31282 | -12.78819 | 34073 ft | 469 kts | 300° |
| 2026-05-04 09:10 | 55.34515 | -12.88774 | 34073 ft | 468 kts | 300° |
| 2026-05-04 09:11 | 55.37723 | -12.98721 | 34073 ft | 468 kts | 300° |
| 2026-05-04 09:11 | 55.40930 | -13.08671 | 34073 ft | 467 kts | 299° |
| 2026-05-04 09:12 | 55.44125 | -13.18627 | 34077 ft | 467 kts | 299° |
| 2026-05-04 09:14 | 55.56154 | -13.56527 | 34062 ft | 452 kts | 298° |
| 2026-05-04 09:14 | 55.59185 | -13.66173 | 34065 ft | 446 kts | 298° |
| 2026-05-04 09:15 | 55.62173 | -13.75714 | 34066 ft | 441 kts | 298° |
| 2026-05-04 09:15 | 55.65119 | -13.85155 | 34065 ft | 437 kts | 298° |
| 2026-05-04 09:17 | 55.78512 | -14.28603 | 34085 ft | 470 kts | 298° |
| 2026-05-04 09:18 | 55.81630 | -14.38824 | 34072 ft | 470 kts | 298° |
| 2026-05-04 09:18 | 55.84729 | -14.49027 | 34068 ft | 468 kts | 297° |
| 2026-05-04 09:19 | 55.87804 | -14.59213 | 34068 ft | 466 kts | 297° |
| 2026-05-04 09:19 | 55.90860 | -14.69363 | 34069 ft | 464 kts | 297° |
| 2026-05-04 09:20 | 55.93898 | -14.79497 | 34072 ft | 463 kts | 297° |
| 2026-05-04 09:20 | 55.96929 | -14.89660 | 34074 ft | 463 kts | 297° |
| 2026-05-04 09:21 | 55.99938 | -14.99836 | 34074 ft | 463 kts | 295° |
| 2026-05-04 09:21 | 56.02425 | -15.10445 | 34091 ft | 463 kts | 291° |
| 2026-05-04 09:22 | 56.04783 | -15.21148 | 34070 ft | 462 kts | 290° |
| 2026-05-04 09:22 | 56.07138 | -15.31841 | 34072 ft | 461 kts | 291° |
| 2026-05-04 09:23 | 56.07891 | -15.35243 | 34072 ft | 461 kts | 291° |
| 2026-05-04 09:23 | 56.09008 | -15.40286 | 34067 ft | 461 kts | 290° |
| 2026-05-04 09:25 | 56.17976 | -15.81159 | 34094 ft | 464 kts | 290° |
| 2026-05-04 09:26 | 56.20316 | -15.91952 | 34093 ft | 464 kts | 290° |
| 2026-05-04 09:26 | 56.22642 | -16.02750 | 34091 ft | 463 kts | 290° |
| 2026-05-04 09:27 | 56.24956 | -16.13538 | 34094 ft | 463 kts | 290° |
| 2026-05-04 09:27 | 56.27264 | -16.24338 | 34087 ft | 462 kts | 290° |
| 2026-05-04 09:28 | 56.29555 | -16.35155 | 34089 ft | 462 kts | 290° |
| 2026-05-04 09:28 | 56.31835 | -16.45968 | 34091 ft | 462 kts | 290° |
| 2026-05-04 09:29 | 56.34107 | -16.56789 | 34098 ft | 461 kts | 290° |
| 2026-05-04 09:29 | 56.36362 | -16.67611 | 34090 ft | 461 kts | 289° |
| 2026-05-04 09:30 | 56.38612 | -16.78443 | 34090 ft | 461 kts | 289° |
| 2026-05-04 09:30 | 56.40857 | -16.89299 | 34092 ft | 462 kts | 290° |
| 2026-05-04 09:31 | 56.43092 | -17.00166 | 34090 ft | 462 kts | 289° |
| 2026-05-04 09:31 | 56.45313 | -17.11047 | 34090 ft | 461 kts | 289° |
| 2026-05-04 09:32 | 56.47511 | -17.21877 | 34092 ft | 462 kts | 289° |
| 2026-05-04 09:34 | 56.56292 | -17.65700 | 34089 ft | 464 kts | 289° |
| 2026-05-04 09:34 | 56.58468 | -17.76702 | 34096 ft | 464 kts | 289° |
| 2026-05-04 09:35 | 56.60637 | -17.87732 | 34089 ft | 464 kts | 289° |
| 2026-05-04 09:35 | 56.62794 | -17.98777 | 34091 ft | 464 kts | 289° |
| 2026-05-04 09:37 | 56.71323 | -18.43069 | 34082 ft | 464 kts | 288° |
| 2026-05-04 09:38 | 56.73440 | -18.54185 | 34085 ft | 464 kts | 288° |
| 2026-05-04 09:38 | 56.75538 | -18.65299 | 34084 ft | 464 kts | 288° |
| 2026-05-04 09:39 | 56.77620 | -18.76410 | 34085 ft | 463 kts | 288° |
| 2026-05-04 09:39 | 56.79698 | -18.87551 | 34083 ft | 463 kts | 288° |
| 2026-05-04 09:40 | 56.81763 | -18.98674 | 34086 ft | 463 kts | 288° |
| 2026-05-04 09:40 | 56.83820 | -19.09825 | 34077 ft | 463 kts | 288° |
| 2026-05-04 09:42 | 56.91942 | -19.54545 | 34083 ft | 464 kts | 288° |
| 2026-05-04 09:43 | 56.92436 | -19.57299 | 34087 ft | 464 kts | 287° |
| 2026-05-04 09:43 | 56.93518 | -19.63353 | 34082 ft | 464 kts | 287° |
| 2026-05-04 09:44 | 56.95529 | -19.74656 | 34084 ft | 464 kts | 287° |
| 2026-05-04 09:46 | 57.00844 | -20.20595 | 34084 ft | 464 kts | 273° |
| 2026-05-04 09:46 | 57.01256 | -20.32406 | 34084 ft | 464 kts | 274° |
| 2026-05-04 09:47 | 57.01679 | -20.44198 | 34109 ft | 463 kts | 274° |
| 2026-05-04 09:49 | 57.03311 | -20.91470 | 34109 ft | 465 kts | 273° |
| 2026-05-04 09:51 | 57.04592 | -21.32925 | 34110 ft | 464 kts | 273° |
| 2026-05-04 09:51 | 57.04934 | -21.44770 | 34115 ft | 465 kts | 273° |
| 2026-05-04 09:52 | 57.05263 | -21.56628 | 34110 ft | 465 kts | 273° |
| 2026-05-04 09:52 | 57.05581 | -21.68490 | 34111 ft | 465 kts | 272° |
| 2026-05-04 09:53 | 57.05890 | -21.80338 | 34112 ft | 465 kts | 272° |
| 2026-05-04 09:53 | 57.06138 | -21.90198 | 34109 ft | 465 kts | 272° |
| 2026-05-04 09:54 | 57.06428 | -22.02057 | 34110 ft | 465 kts | 272° |
| 2026-05-04 09:54 | 57.06703 | -22.13935 | 34113 ft | 465 kts | 272° |
| 2026-05-04 09:55 | 57.06965 | -22.25806 | 34112 ft | 465 kts | 272° |
| 2026-05-04 09:55 | 57.07224 | -22.37684 | 34110 ft | 465 kts | 272° |
| 2026-05-04 09:56 | 57.07466 | -22.49563 | 34111 ft | 465 kts | 272° |
| 2026-05-04 09:56 | 57.07697 | -22.61454 | 34111 ft | 465 kts | 272° |
| 2026-05-04 09:57 | 57.07916 | -22.73348 | 34116 ft | 466 kts | 272° |
| 2026-05-04 09:57 | 57.08126 | -22.85236 | 34122 ft | 465 kts | 272° |
| 2026-05-04 09:58 | 57.08326 | -22.97122 | 34118 ft | 465 kts | 272° |
| 2026-05-04 09:58 | 57.08505 | -23.08992 | 34115 ft | 465 kts | 271° |
| 2026-05-04 10:00 | 57.09142 | -23.56440 | 34166 ft | 466 kts | 271° |
| 2026-05-04 10:04 | 57.09742 | -24.25477 | 34160 ft | 467 kts | 271° |
| 2026-05-04 10:04 | 57.09806 | -24.37394 | 34156 ft | 466 kts | 271° |
| 2026-05-04 10:05 | 57.09861 | -24.49308 | 34156 ft | 466 kts | 271° |
| 2026-05-04 10:05 | 57.09907 | -24.61230 | 34156 ft | 466 kts | 270° |
| 2026-05-04 10:06 | 57.09937 | -24.73147 | 34155 ft | 465 kts | 270° |
| 2026-05-04 10:06 | 57.09955 | -24.85054 | 34158 ft | 466 kts | 270° |
| 2026-05-04 10:08 | 57.09936 | -25.26709 | 34171 ft | 466 kts | 270° |
| 2026-05-04 10:08 | 57.09903 | -25.38628 | 34176 ft | 466 kts | 270° |
| 2026-05-04 10:09 | 57.09856 | -25.50535 | 34172 ft | 466 kts | 270° |
| 2026-05-04 10:09 | 57.09806 | -25.62462 | 34177 ft | 466 kts | 270° |
| 2026-05-04 10:10 | 57.09744 | -25.74394 | 34175 ft | 466 kts | 269° |
| 2026-05-04 10:10 | 57.09667 | -25.86332 | 34177 ft | 467 kts | 269° |
| 2026-05-04 10:11 | 57.09579 | -25.98276 | 34170 ft | 467 kts | 269° |
| 2026-05-04 10:11 | 57.09483 | -26.10220 | 34175 ft | 467 kts | 269° |
| 2026-05-04 10:12 | 57.09370 | -26.22169 | 34175 ft | 467 kts | 269° |
| 2026-05-04 10:12 | 57.09247 | -26.34095 | 34174 ft | 467 kts | 269° |
| 2026-05-04 10:13 | 57.09112 | -26.46042 | 34175 ft | 467 kts | 269° |
| 2026-05-04 10:13 | 57.08971 | -26.57986 | 34176 ft | 467 kts | 269° |
| 2026-05-04 10:14 | 57.08815 | -26.69924 | 34176 ft | 467 kts | 269° |
| 2026-05-04 10:16 | 57.08079 | -27.17673 | 34176 ft | 467 kts | 268° |
| 2026-05-04 10:16 | 57.07863 | -27.29611 | 34198 ft | 466 kts | 268° |
| 2026-05-04 10:17 | 57.07640 | -27.41504 | 34218 ft | 465 kts | 268° |
| 2026-05-04 10:19 | 57.06634 | -27.89141 | 34220 ft | 467 kts | 268° |
| 2026-05-04 10:19 | 57.06356 | -28.00993 | 34204 ft | 468 kts | 267° |
| 2026-05-04 10:20 | 57.06065 | -28.12935 | 34218 ft | 468 kts | 267° |
| 2026-05-04 10:20 | 57.05760 | -28.24854 | 34221 ft | 467 kts | 267° |
| 2026-05-04 10:21 | 57.05449 | -28.36779 | 34205 ft | 467 kts | 267° |
| 2026-05-04 10:21 | 57.05124 | -28.48686 | 34202 ft | 466 kts | 267° |
| 2026-05-04 10:22 | 57.04612 | -28.66528 | 34210 ft | 466 kts | 267° |
| 2026-05-04 10:23 | 57.04339 | -28.75731 | 34207 ft | 465 kts | 266° |
| 2026-05-04 10:25 | 57.03217 | -29.11580 | 34212 ft | 466 kts | 266° |
| 2026-05-04 10:25 | 57.02820 | -29.23464 | 34221 ft | 466 kts | 266° |
| 2026-05-04 10:26 | 57.02411 | -29.35343 | 34202 ft | 467 kts | 266° |
| 2026-05-04 10:26 | 57.01995 | -29.47238 | 34207 ft | 467 kts | 266° |
| 2026-05-04 10:27 | 57.01562 | -29.59152 | 34201 ft | 467 kts | 266° |
| 2026-05-04 10:27 | 57.01121 | -29.71046 | 34201 ft | 467 kts | 266° |
| 2026-05-04 10:28 | 57.00673 | -29.82839 | 34204 ft | 467 kts | 266° |
| 2026-05-04 10:28 | 57.00208 | -29.94733 | 34201 ft | 467 kts | 266° |
| 2026-05-04 10:29 | 57.00178 | -30.06625 | 34205 ft | 466 kts | 274° |
| 2026-05-04 10:29 | 57.00671 | -30.18469 | 34200 ft | 466 kts | 274° |
| 2026-05-04 10:30 | 57.01158 | -30.30339 | 34206 ft | 466 kts | 274° |
| 2026-05-04 10:30 | 57.01612 | -30.42205 | 34199 ft | 467 kts | 274° |
| 2026-05-04 10:31 | 57.02041 | -30.54099 | 34214 ft | 467 kts | 273° |
| 2026-05-04 10:32 | 57.03452 | -30.95828 | 34201 ft | 468 kts | 273° |
| 2026-05-04 10:33 | 57.03832 | -31.07761 | 34218 ft | 468 kts | 273° |
| 2026-05-04 10:33 | 57.04203 | -31.19692 | 34200 ft | 468 kts | 273° |
| 2026-05-04 10:34 | 57.04560 | -31.31645 | 34168 ft | 469 kts | 273° |
| 2026-05-04 10:34 | 57.04906 | -31.43617 | 34132 ft | 470 kts | 272° |
| 2026-05-04 10:35 | 57.05241 | -31.55520 | 34118 ft | 470 kts | 272° |
| 2026-05-04 10:35 | 57.05562 | -31.67486 | 34119 ft | 469 kts | 272° |
| 2026-05-04 10:36 | 57.05873 | -31.79464 | 34120 ft | 469 kts | 272° |
| 2026-05-04 10:36 | 57.06172 | -31.91424 | 34119 ft | 469 kts | 272° |
| 2026-05-04 10:37 | 57.06459 | -32.03379 | 34119 ft | 468 kts | 272° |
| 2026-05-04 10:37 | 57.06735 | -32.15348 | 34122 ft | 469 kts | 272° |
| 2026-05-04 10:39 | 57.07623 | -32.57392 | 34121 ft | 472 kts | 272° |
| 2026-05-04 10:40 | 57.07848 | -32.69453 | 34122 ft | 472 kts | 271° |
| 2026-05-04 10:40 | 57.08064 | -32.81508 | 34120 ft | 472 kts | 271° |
| 2026-05-04 10:41 | 57.08268 | -32.93568 | 34119 ft | 472 kts | 271° |
| 2026-05-04 10:41 | 57.08426 | -33.03572 | 34120 ft | 472 kts | 271° |
| 2026-05-04 10:42 | 57.08610 | -33.15630 | 34121 ft | 472 kts | 271° |
| 2026-05-04 10:42 | 57.08786 | -33.27698 | 34118 ft | 472 kts | 271° |
| 2026-05-04 10:43 | 57.08923 | -33.38277 | 34123 ft | 473 kts | 271° |
| 2026-05-04 10:45 | 57.09328 | -33.73456 | 34119 ft | 474 kts | 271° |
| 2026-05-04 10:45 | 57.09445 | -33.85562 | 34116 ft | 473 kts | 271° |
| 2026-05-04 10:46 | 57.09549 | -33.97658 | 34108 ft | 473 kts | 271° |
| 2026-05-04 10:46 | 57.09645 | -34.09751 | 34111 ft | 473 kts | 270° |
| 2026-05-04 10:47 | 57.09723 | -34.21861 | 34112 ft | 473 kts | 270° |
| 2026-05-04 10:47 | 57.09793 | -34.33980 | 34111 ft | 474 kts | 270° |
| 2026-05-04 10:49 | 57.09952 | -34.82598 | 34109 ft | 475 kts | 270° |
| 2026-05-04 10:50 | 57.09963 | -34.94737 | 34112 ft | 475 kts | 270° |
| 2026-05-04 10:52 | 57.09893 | -35.43136 | 34114 ft | 474 kts | 270° |
| 2026-05-04 10:52 | 57.09844 | -35.55260 | 34114 ft | 474 kts | 269° |
| 2026-05-04 10:54 | 57.09537 | -36.03846 | 34111 ft | 475 kts | 269° |
| 2026-05-04 10:56 | 57.09042 | -36.52481 | 34112 ft | 475 kts | 269° |
| 2026-05-04 10:57 | 57.08884 | -36.64633 | 34111 ft | 475 kts | 269° |
| 2026-05-04 10:57 | 57.08719 | -36.76772 | 34110 ft | 475 kts | 269° |
| 2026-05-04 10:58 | 57.08545 | -36.88918 | 34112 ft | 475 kts | 269° |
| 2026-05-04 10:58 | 57.08355 | -37.01060 | 34109 ft | 475 kts | 268° |
| 2026-05-04 10:59 | 57.08155 | -37.13195 | 34114 ft | 475 kts | 268° |
| 2026-05-04 10:59 | 57.07945 | -37.25345 | 34111 ft | 475 kts | 268° |
| 2026-05-04 11:00 | 57.07720 | -37.37480 | 34112 ft | 475 kts | 268° |
| 2026-05-04 11:02 | 57.06707 | -37.86053 | 34110 ft | 475 kts | 268° |
| 2026-05-04 11:05 | 57.04751 | -38.61912 | 34110 ft | 476 kts | 267° |
| 2026-05-04 11:06 | 57.04395 | -38.74045 | 34102 ft | 476 kts | 267° |
| 2026-05-04 11:06 | 57.04101 | -38.83679 | 34101 ft | 476 kts | 267° |
| 2026-05-04 11:10 | 57.01221 | -39.68317 | 34133 ft | 475 kts | 266° |
| 2026-05-04 11:12 | 56.99091 | -40.16625 | 34132 ft | 475 kts | 263° |
| 2026-05-04 11:12 | 56.98327 | -40.28656 | 34129 ft | 475 kts | 263° |
| 2026-05-04 11:13 | 56.97574 | -40.40681 | 34130 ft | 473 kts | 264° |
| 2026-05-04 11:13 | 56.96834 | -40.52572 | 34129 ft | 473 kts | 263° |
| 2026-05-04 11:16 | 56.93178 | -41.09249 | 34130 ft | 443 kts | 263° |
| 2026-05-04 11:16 | 56.92425 | -41.20438 | 34131 ft | 443 kts | 263° |
| 2026-05-04 11:17 | 56.91662 | -41.31617 | 34131 ft | 443 kts | 263° |
| 2026-05-04 11:19 | 56.88518 | -41.76209 | 34118 ft | 441 kts | 263° |
| 2026-05-04 11:19 | 56.87704 | -41.87317 | 34122 ft | 441 kts | 263° |
| 2026-05-04 11:20 | 56.86887 | -41.98421 | 34120 ft | 440 kts | 263° |
| 2026-05-04 11:20 | 56.86060 | -42.09512 | 34124 ft | 440 kts | 263° |
| 2026-05-04 11:22 | 56.82658 | -42.53721 | 34120 ft | 439 kts | 262° |
| 2026-05-04 11:23 | 56.82460 | -42.56227 | 34118 ft | 439 kts | 262° |
| 2026-05-04 11:25 | 56.79763 | -42.89768 | 34118 ft | 437 kts | 262° |
| 2026-05-04 11:25 | 56.79012 | -42.98885 | 34124 ft | 438 kts | 262° |
| 2026-05-04 11:27 | 56.74818 | -43.48420 | 34110 ft | 440 kts | 262° |
| 2026-05-04 11:28 | 56.73858 | -43.59433 | 34110 ft | 440 kts | 262° |
| 2026-05-04 11:28 | 56.72890 | -43.70425 | 34109 ft | 439 kts | 262° |
| 2026-05-04 11:29 | 56.71911 | -43.81399 | 34110 ft | 439 kts | 262° |
| 2026-05-04 11:29 | 56.70927 | -43.92351 | 34111 ft | 439 kts | 262° |
| 2026-05-04 11:33 | 56.63788 | -44.68568 | 34048 ft | 436 kts | 261° |
| 2026-05-04 11:33 | 56.62732 | -44.79407 | 34045 ft | 435 kts | 261° |
| 2026-05-04 11:34 | 56.61669 | -44.90220 | 34048 ft | 435 kts | 261° |
| 2026-05-04 11:34 | 56.60595 | -45.01011 | 34048 ft | 434 kts | 261° |
| 2026-05-04 11:35 | 56.59516 | -45.11772 | 34027 ft | 433 kts | 261° |
| 2026-05-04 11:35 | 56.58438 | -45.22482 | 34043 ft | 432 kts | 261° |
| 2026-05-04 11:36 | 56.57345 | -45.33197 | 34047 ft | 431 kts | 261° |
| 2026-05-04 11:36 | 56.56247 | -45.43874 | 34032 ft | 430 kts | 261° |
| 2026-05-04 11:37 | 56.55142 | -45.54531 | 34024 ft | 429 kts | 261° |
| 2026-05-04 11:37 | 56.54032 | -45.65130 | 34011 ft | 429 kts | 261° |
| 2026-05-04 11:38 | 56.52912 | -45.75731 | 33998 ft | 429 kts | 261° |
| 2026-05-04 11:38 | 56.51785 | -45.86321 | 33999 ft | 428 kts | 261° |
| 2026-05-04 11:39 | 56.50651 | -45.96863 | 33999 ft | 426 kts | 261° |
| 2026-05-04 11:41 | 56.46625 | -46.33652 | 33987 ft | 425 kts | 261° |
| 2026-05-04 11:41 | 56.45459 | -46.44133 | 33983 ft | 425 kts | 260° |
| 2026-05-04 11:42 | 56.44274 | -46.54613 | 33982 ft | 426 kts | 260° |
| 2026-05-04 11:42 | 56.43083 | -46.65108 | 33979 ft | 426 kts | 260° |
| 2026-05-04 11:43 | 56.42108 | -46.73682 | 33972 ft | 425 kts | 260° |
| 2026-05-04 11:44 | 56.41023 | -46.83123 | 33975 ft | 425 kts | 260° |
| 2026-05-04 11:44 | 56.39810 | -46.93563 | 33975 ft | 425 kts | 260° |
| 2026-05-04 11:45 | 56.38594 | -47.03981 | 33971 ft | 424 kts | 259° |
| 2026-05-04 11:45 | 56.37366 | -47.14382 | 33963 ft | 424 kts | 259° |
| 2026-05-04 11:46 | 56.36138 | -47.24778 | 33963 ft | 423 kts | 259° |
| 2026-05-04 11:46 | 56.34896 | -47.35149 | 33958 ft | 423 kts | 259° |
| 2026-05-04 11:47 | 56.33651 | -47.45517 | 33962 ft | 422 kts | 259° |
| 2026-05-04 11:47 | 56.32397 | -47.55830 | 33955 ft | 421 kts | 259° |
| 2026-05-04 11:48 | 56.31137 | -47.66127 | 33948 ft | 419 kts | 259° |
| 2026-05-04 11:48 | 56.29879 | -47.76358 | 33934 ft | 418 kts | 259° |
| 2026-05-04 11:49 | 56.28613 | -47.86549 | 33953 ft | 416 kts | 258° |
| 2026-05-04 11:49 | 56.27342 | -47.96707 | 33935 ft | 416 kts | 258° |
| 2026-05-04 11:50 | 56.26069 | -48.06838 | 33935 ft | 415 kts | 258° |
| 2026-05-04 11:50 | 56.24782 | -48.16961 | 33936 ft | 415 kts | 258° |
| 2026-05-04 11:51 | 56.23494 | -48.27095 | 33926 ft | 416 kts | 258° |
| 2026-05-04 11:51 | 56.22190 | -48.37230 | 33928 ft | 417 kts | 258° |
| 2026-05-04 11:52 | 56.20875 | -48.47386 | 33923 ft | 417 kts | 258° |
| 2026-05-04 11:52 | 56.19542 | -48.57561 | 33918 ft | 419 kts | 258° |
| 2026-05-04 11:53 | 56.18207 | -48.67760 | 33910 ft | 420 kts | 258° |
| 2026-05-04 11:53 | 56.16863 | -48.77962 | 33898 ft | 420 kts | 257° |
| 2026-05-04 11:55 | 56.11374 | -49.18755 | 34705 ft | 427 kts | 257° |
| 2026-05-04 11:55 | 56.10666 | -49.23925 | 34949 ft | 429 kts | 257° |
| 2026-05-04 11:56 | 56.09949 | -49.29141 | 35171 ft | 431 kts | 257° |
| 2026-05-04 11:56 | 56.09230 | -49.34375 | 35372 ft | 434 kts | 257° |
| 2026-05-04 11:56 | 56.08508 | -49.39630 | 35549 ft | 436 kts | 256° |
| 2026-05-04 11:56 | 56.07777 | -49.44920 | 35732 ft | 439 kts | 256° |
| 2026-05-04 11:57 | 56.07036 | -49.50255 | 35792 ft | 444 kts | 256° |
| 2026-05-04 11:57 | 56.05522 | -49.61084 | 35864 ft | 454 kts | 256° |
| 2026-05-04 11:58 | 56.03967 | -49.72115 | 35871 ft | 459 kts | 256° |
| 2026-05-04 11:58 | 56.02406 | -49.83168 | 35853 ft | 455 kts | 256° |
| 2026-05-04 11:59 | 56.00859 | -49.94020 | 35843 ft | 449 kts | 256° |
| 2026-05-04 11:59 | 55.98968 | -50.04623 | 35835 ft | 449 kts | 247° |
| 2026-05-04 12:00 | 55.96452 | -50.14863 | 35839 ft | 450 kts | 247° |
| 2026-05-04 12:00 | 55.93944 | -50.25087 | 35834 ft | 450 kts | 247° |
| 2026-05-04 12:01 | 55.91438 | -50.35355 | 35830 ft | 452 kts | 247° |
| 2026-05-04 12:02 | 55.82584 | -50.71385 | 35809 ft | 456 kts | 246° |
| 2026-05-04 12:03 | 55.81949 | -50.73957 | 35803 ft | 456 kts | 246° |
| 2026-05-04 12:03 | 55.80900 | -50.78191 | 35801 ft | 456 kts | 246° |
| 2026-05-04 12:04 | 55.78318 | -50.88555 | 35791 ft | 456 kts | 246° |
| 2026-05-04 12:04 | 55.75734 | -50.98878 | 35786 ft | 456 kts | 246° |
| 2026-05-04 12:05 | 55.73157 | -51.09129 | 35789 ft | 455 kts | 245° |
| 2026-05-04 12:05 | 55.70566 | -51.19377 | 35768 ft | 455 kts | 245° |
| 2026-05-04 12:06 | 55.67969 | -51.29606 | 35764 ft | 455 kts | 245° |
| 2026-05-04 12:06 | 55.65361 | -51.39837 | 35764 ft | 455 kts | 245° |
| 2026-05-04 12:07 | 55.62749 | -51.50037 | 35759 ft | 456 kts | 245° |
| 2026-05-04 12:07 | 55.60138 | -51.60176 | 35754 ft | 456 kts | 245° |
| 2026-05-04 12:08 | 55.57505 | -51.70363 | 35749 ft | 457 kts | 245° |
| 2026-05-04 12:08 | 55.54850 | -51.80591 | 35731 ft | 458 kts | 244° |
| 2026-05-04 12:09 | 55.52183 | -51.90818 | 35716 ft | 460 kts | 243° |
| 2026-05-04 12:09 | 55.49494 | -52.01077 | 35715 ft | 462 kts | 243° |
| 2026-05-04 12:10 | 55.46783 | -52.11376 | 35710 ft | 464 kts | 243° |
| 2026-05-04 12:10 | 55.44049 | -52.21714 | 35675 ft | 466 kts | 243° |
| 2026-05-04 12:11 | 55.41300 | -52.32069 | 35661 ft | 467 kts | 243° |
| 2026-05-04 12:11 | 55.38987 | -52.40748 | 35654 ft | 467 kts | 243° |
| 2026-05-04 12:12 | 55.36226 | -52.51055 | 35652 ft | 466 kts | 243° |
| 2026-05-04 12:12 | 55.33460 | -52.61334 | 35648 ft | 465 kts | 242° |
| 2026-05-04 12:14 | 55.22346 | -53.02162 | 35609 ft | 463 kts | 242° |
| 2026-05-04 12:15 | 55.19550 | -53.12328 | 35612 ft | 464 kts | 242° |
| 2026-05-04 12:15 | 55.16757 | -53.22435 | 35611 ft | 465 kts | 242° |
| 2026-05-04 12:16 | 55.13930 | -53.32618 | 35605 ft | 466 kts | 242° |
| 2026-05-04 12:16 | 55.11090 | -53.42792 | 35611 ft | 466 kts | 241° |
| 2026-05-04 12:17 | 55.08241 | -53.52965 | 35609 ft | 466 kts | 241° |
| 2026-05-04 12:17 | 55.05381 | -53.63127 | 35608 ft | 467 kts | 241° |
| 2026-05-04 12:18 | 55.02515 | -53.73287 | 35600 ft | 467 kts | 241° |
| 2026-05-04 12:18 | 54.99635 | -53.83438 | 35603 ft | 467 kts | 241° |
| 2026-05-04 12:19 | 54.96748 | -53.93553 | 35603 ft | 467 kts | 240° |
| 2026-05-04 12:19 | 54.93855 | -54.03672 | 35597 ft | 467 kts | 240° |
| 2026-05-04 12:20 | 54.90953 | -54.13774 | 35599 ft | 467 kts | 240° |
| 2026-05-04 12:20 | 54.88041 | -54.23844 | 35603 ft | 467 kts | 240° |
| 2026-05-04 12:21 | 54.85120 | -54.33922 | 35605 ft | 467 kts | 240° |
| 2026-05-04 12:21 | 54.82192 | -54.43975 | 35610 ft | 467 kts | 240° |
| 2026-05-04 12:22 | 54.79243 | -54.54051 | 35612 ft | 468 kts | 240° |
| 2026-05-04 12:22 | 54.76289 | -54.64105 | 35597 ft | 469 kts | 240° |
| 2026-05-04 12:23 | 54.75266 | -54.67583 | 35580 ft | 469 kts | 240° |
| 2026-05-04 12:23 | 54.73845 | -54.72397 | 35578 ft | 470 kts | 239° |
| 2026-05-04 12:24 | 54.70890 | -54.82383 | 35570 ft | 470 kts | 239° |
| 2026-05-04 12:24 | 54.67908 | -54.92415 | 35571 ft | 469 kts | 239° |
| 2026-05-04 12:25 | 54.64914 | -55.02443 | 35570 ft | 469 kts | 239° |
| 2026-05-04 12:25 | 54.61919 | -55.12453 | 35563 ft | 469 kts | 239° |
| 2026-05-04 12:26 | 54.58907 | -55.22456 | 35562 ft | 469 kts | 239° |
| 2026-05-04 12:26 | 54.55887 | -55.32420 | 35561 ft | 470 kts | 239° |
| 2026-05-04 12:27 | 54.52856 | -55.42399 | 35561 ft | 470 kts | 239° |
| 2026-05-04 12:27 | 54.49818 | -55.52362 | 35563 ft | 471 kts | 238° |
| 2026-05-04 12:28 | 54.46763 | -55.62335 | 35564 ft | 472 kts | 238° |
| 2026-05-04 12:28 | 54.43697 | -55.72312 | 35561 ft | 472 kts | 238° |
| 2026-05-04 12:29 | 54.40623 | -55.82267 | 35567 ft | 472 kts | 238° |
| 2026-05-04 12:29 | 54.37533 | -55.92239 | 35552 ft | 473 kts | 238° |
| 2026-05-04 12:30 | 54.34437 | -56.02186 | 35545 ft | 473 kts | 238° |
| 2026-05-04 12:30 | 54.31329 | -56.12120 | 35544 ft | 473 kts | 238° |
| 2026-05-04 12:31 | 54.28215 | -56.22053 | 35546 ft | 473 kts | 238° |
| 2026-05-04 12:31 | 54.25089 | -56.31968 | 35544 ft | 473 kts | 238° |
| 2026-05-04 12:32 | 54.20388 | -56.46798 | 35544 ft | 473 kts | 237° |
| 2026-05-04 12:33 | 54.17244 | -56.56661 | 35543 ft | 473 kts | 237° |
| 2026-05-04 12:33 | 54.14097 | -56.66522 | 35545 ft | 473 kts | 237° |
| 2026-05-04 12:34 | 54.10943 | -56.76350 | 35545 ft | 473 kts | 237° |
| 2026-05-04 12:34 | 54.07776 | -56.86181 | 35542 ft | 473 kts | 237° |
| 2026-05-04 12:35 | 54.04773 | -56.96166 | 35525 ft | 478 kts | 247° |
| 2026-05-04 12:35 | 54.03597 | -57.07382 | 35536 ft | 490 kts | 267° |
| 2026-05-04 12:36 | 54.04160 | -57.18907 | 35538 ft | 494 kts | 272° |
| 2026-05-04 12:36 | 54.04875 | -57.30552 | 35544 ft | 495 kts | 272° |
| 2026-05-04 12:37 | 54.05535 | -57.42193 | 35550 ft | 496 kts | 272° |
| 2026-05-04 12:37 | 54.06140 | -57.53910 | 35545 ft | 498 kts | 271° |
| 2026-05-04 12:38 | 54.06726 | -57.65666 | 35546 ft | 499 kts | 271° |
| 2026-05-04 12:38 | 54.07303 | -57.77451 | 35558 ft | 499 kts | 271° |
| 2026-05-04 12:39 | 54.07871 | -57.89218 | 35548 ft | 499 kts | 271° |
| 2026-05-04 12:39 | 54.08422 | -58.00993 | 35562 ft | 499 kts | 271° |
| 2026-05-04 12:40 | 54.08963 | -58.12742 | 35566 ft | 499 kts | 271° |
| 2026-05-04 12:40 | 54.09497 | -58.24552 | 35567 ft | 499 kts | 271° |
| 2026-05-04 12:41 | 54.10017 | -58.36303 | 35571 ft | 498 kts | 271° |
| 2026-05-04 12:41 | 54.10524 | -58.48073 | 35573 ft | 498 kts | 271° |
| 2026-05-04 12:42 | 54.11020 | -58.59845 | 35575 ft | 498 kts | 271° |
| 2026-05-04 12:42 | 54.11504 | -58.71600 | 35583 ft | 497 kts | 270° |
| 2026-05-04 12:43 | 54.11871 | -58.80663 | 35583 ft | 497 kts | 270° |
| 2026-05-04 12:44 | 54.12306 | -58.91667 | 35581 ft | 497 kts | 270° |
| 2026-05-04 12:44 | 54.12758 | -59.03425 | 35595 ft | 497 kts | 270° |
| 2026-05-04 12:45 | 54.13200 | -59.15161 | 35589 ft | 497 kts | 270° |
| 2026-05-04 12:45 | 54.13629 | -59.26872 | 35593 ft | 498 kts | 270° |
| 2026-05-04 12:46 | 54.14044 | -59.38662 | 35601 ft | 498 kts | 270° |
| 2026-05-04 12:46 | 54.14452 | -59.50460 | 35602 ft | 499 kts | 270° |
| 2026-05-04 12:47 | 54.14849 | -59.62287 | 35600 ft | 500 kts | 270° |
| 2026-05-04 12:47 | 54.15235 | -59.74103 | 35592 ft | 501 kts | 270° |
| 2026-05-04 12:48 | 54.15610 | -59.85984 | 35589 ft | 501 kts | 270° |
| 2026-05-04 12:48 | 54.15975 | -59.97858 | 35589 ft | 501 kts | 270° |
| 2026-05-04 12:49 | 54.16326 | -60.09726 | 35595 ft | 501 kts | 270° |
| 2026-05-04 12:49 | 54.16665 | -60.21620 | 35588 ft | 502 kts | 270° |
| 2026-05-04 12:50 | 54.16999 | -60.33518 | 35588 ft | 501 kts | 269° |
| 2026-05-04 12:50 | 54.17318 | -60.45389 | 35579 ft | 501 kts | 269° |
| 2026-05-04 12:51 | 54.17622 | -60.57258 | 35589 ft | 500 kts | 269° |
| 2026-05-04 12:51 | 54.17912 | -60.69093 | 35593 ft | 499 kts | 269° |
| 2026-05-04 12:52 | 54.18196 | -60.80941 | 35590 ft | 499 kts | 269° |
| 2026-05-04 12:52 | 54.18463 | -60.92771 | 35594 ft | 499 kts | 269° |
| 2026-05-04 12:53 | 54.18721 | -61.04612 | 35589 ft | 499 kts | 269° |
| 2026-05-04 12:53 | 54.18966 | -61.16447 | 35592 ft | 499 kts | 269° |
| 2026-05-04 12:54 | 54.19201 | -61.28271 | 35589 ft | 499 kts | 269° |
| 2026-05-04 12:54 | 54.19423 | -61.40041 | 35590 ft | 499 kts | 269° |
| 2026-05-04 12:55 | 54.19635 | -61.51877 | 35597 ft | 499 kts | 269° |
| 2026-05-04 12:55 | 54.19834 | -61.63731 | 35601 ft | 499 kts | 269° |
| 2026-05-04 12:56 | 54.20022 | -61.75601 | 35602 ft | 500 kts | 268° |
| 2026-05-04 12:56 | 54.20200 | -61.87476 | 35582 ft | 500 kts | 268° |
| 2026-05-04 12:57 | 54.20364 | -61.99342 | 35597 ft | 500 kts | 268° |
| 2026-05-04 12:57 | 54.20491 | -62.09302 | 35605 ft | 500 kts | 268° |
| 2026-05-04 12:58 | 54.20634 | -62.21180 | 35599 ft | 500 kts | 268° |
| 2026-05-04 12:58 | 54.20768 | -62.33059 | 35604 ft | 500 kts | 268° |
| 2026-05-04 12:59 | 54.20891 | -62.44897 | 35599 ft | 500 kts | 268° |
| 2026-05-04 12:59 | 54.20998 | -62.56714 | 35606 ft | 500 kts | 268° |
| 2026-05-04 13:00 | 54.21095 | -62.68586 | 35609 ft | 499 kts | 268° |
| 2026-05-04 13:00 | 54.21178 | -62.80426 | 35605 ft | 499 kts | 268° |
| 2026-05-04 13:01 | 54.21255 | -62.92310 | 35614 ft | 499 kts | 268° |
| 2026-05-04 13:01 | 54.21315 | -63.04172 | 35606 ft | 499 kts | 268° |
| 2026-05-04 13:02 | 54.21364 | -63.16030 | 35611 ft | 499 kts | 267° |
| 2026-05-04 13:02 | 54.21407 | -63.27891 | 35606 ft | 499 kts | 267° |
| 2026-05-04 13:03 | 54.21429 | -63.38212 | 35600 ft | 499 kts | 267° |
| 2026-05-04 13:04 | 54.21444 | -63.48651 | 35591 ft | 499 kts | 267° |
| 2026-05-04 13:04 | 54.21448 | -63.60508 | 35600 ft | 499 kts | 267° |
| 2026-05-04 13:05 | 54.21442 | -63.72379 | 35599 ft | 500 kts | 267° |
| 2026-05-04 13:05 | 54.21427 | -63.84247 | 35596 ft | 499 kts | 267° |
| 2026-05-04 13:06 | 54.21398 | -63.96109 | 35602 ft | 500 kts | 267° |
| 2026-05-04 13:06 | 54.21358 | -64.07990 | 35600 ft | 500 kts | 267° |
| 2026-05-04 13:07 | 54.21309 | -64.19868 | 35605 ft | 500 kts | 266° |
| 2026-05-04 13:07 | 54.21249 | -64.31746 | 35612 ft | 501 kts | 266° |
| 2026-05-04 13:08 | 54.21171 | -64.43639 | 35611 ft | 501 kts | 266° |
| 2026-05-04 13:08 | 54.21082 | -64.55442 | 35609 ft | 500 kts | 266° |
| 2026-05-04 13:09 | 54.20985 | -64.67326 | 35617 ft | 499 kts | 266° |
| 2026-05-04 13:09 | 54.20872 | -64.79176 | 35620 ft | 499 kts | 266° |
| 2026-05-04 13:10 | 54.20754 | -64.91023 | 35614 ft | 498 kts | 266° |
| 2026-05-04 13:10 | 54.20622 | -65.02856 | 35635 ft | 497 kts | 266° |
| 2026-05-04 13:11 | 54.20476 | -65.14661 | 35627 ft | 497 kts | 266° |
| 2026-05-04 13:11 | 54.20319 | -65.26454 | 35629 ft | 496 kts | 265° |
| 2026-05-04 13:12 | 54.20152 | -65.38230 | 35634 ft | 496 kts | 265° |
| 2026-05-04 13:12 | 54.19975 | -65.50019 | 35640 ft | 496 kts | 265° |
| 2026-05-04 13:13 | 54.19785 | -65.61790 | 35651 ft | 496 kts | 265° |
| 2026-05-04 13:13 | 54.19586 | -65.73554 | 35643 ft | 496 kts | 265° |
| 2026-05-04 13:14 | 54.19372 | -65.85355 | 35652 ft | 496 kts | 265° |
| 2026-05-04 13:14 | 54.19146 | -65.97147 | 35658 ft | 497 kts | 265° |
| 2026-05-04 13:15 | 54.18909 | -66.08927 | 35654 ft | 497 kts | 265° |
| 2026-05-04 13:15 | 54.18663 | -66.20722 | 35669 ft | 497 kts | 265° |
| 2026-05-04 13:16 | 54.18405 | -66.32501 | 35665 ft | 497 kts | 265° |
| 2026-05-04 13:16 | 54.18134 | -66.44324 | 35665 ft | 497 kts | 265° |
| 2026-05-04 13:17 | 54.17851 | -66.56103 | 35668 ft | 497 kts | 264° |
| 2026-05-04 13:17 | 54.17557 | -66.67902 | 35671 ft | 497 kts | 264° |
| 2026-05-04 13:18 | 54.17255 | -66.79670 | 35676 ft | 496 kts | 264° |
| 2026-05-04 13:18 | 54.16939 | -66.91426 | 35672 ft | 495 kts | 264° |
| 2026-05-04 13:19 | 54.16704 | -67.03147 | 35676 ft | 495 kts | 268° |
| 2026-05-04 13:19 | 54.16910 | -67.14825 | 35682 ft | 495 kts | 269° |
| 2026-05-04 13:20 | 54.17134 | -67.26567 | 35682 ft | 495 kts | 269° |
| 2026-05-04 13:20 | 54.17335 | -67.38318 | 35672 ft | 495 kts | 269° |
| 2026-05-04 13:21 | 54.17513 | -67.50068 | 35674 ft | 495 kts | 268° |
| 2026-05-04 13:21 | 54.17667 | -67.61798 | 35673 ft | 494 kts | 268° |
| 2026-05-04 13:22 | 54.17814 | -67.73525 | 35677 ft | 494 kts | 268° |
| 2026-05-04 13:22 | 54.17955 | -67.85233 | 35676 ft | 493 kts | 268° |
| 2026-05-04 13:23 | 54.18054 | -67.94634 | 35672 ft | 494 kts | 268° |
| 2026-05-04 13:24 | 54.18163 | -68.05860 | 35664 ft | 494 kts | 268° |
| 2026-05-04 13:24 | 54.18268 | -68.17585 | 35668 ft | 494 kts | 268° |
| 2026-05-04 13:25 | 54.18406 | -68.35174 | 35669 ft | 494 kts | 268° |
| 2026-05-04 13:25 | 54.18481 | -68.46902 | 35664 ft | 494 kts | 268° |
| 2026-05-04 13:26 | 54.18547 | -68.58633 | 35664 ft | 494 kts | 268° |
| 2026-05-04 13:26 | 54.18601 | -68.70286 | 35664 ft | 494 kts | 268° |
| 2026-05-04 13:27 | 54.18645 | -68.81990 | 35667 ft | 492 kts | 268° |
| 2026-05-04 13:27 | 54.18675 | -68.93677 | 35662 ft | 491 kts | 267° |
| 2026-05-04 13:28 | 54.18696 | -69.05323 | 35664 ft | 490 kts | 267° |
| 2026-05-04 13:28 | 54.18703 | -69.16950 | 35668 ft | 489 kts | 267° |
| 2026-05-04 13:29 | 54.18699 | -69.28572 | 35667 ft | 489 kts | 267° |
| 2026-05-04 13:29 | 54.18683 | -69.40169 | 35671 ft | 490 kts | 267° |
| 2026-05-04 13:30 | 54.18661 | -69.52034 | 35674 ft | 501 kts | 267° |
| 2026-05-04 13:30 | 54.18625 | -69.63945 | 35678 ft | 510 kts | 267° |
| 2026-05-04 13:31 | 54.18573 | -69.76098 | 35671 ft | 513 kts | 267° |
| 2026-05-04 13:31 | 54.18513 | -69.88288 | 35667 ft | 513 kts | 267° |
| 2026-05-04 13:32 | 54.18438 | -70.00453 | 35662 ft | 512 kts | 267° |
| 2026-05-04 13:32 | 54.18352 | -70.12575 | 35656 ft | 510 kts | 267° |
| 2026-05-04 13:33 | 54.18255 | -70.24640 | 35664 ft | 507 kts | 266° |
| 2026-05-04 13:33 | 54.18142 | -70.36671 | 35664 ft | 505 kts | 266° |
| 2026-05-04 13:34 | 54.18020 | -70.48643 | 35666 ft | 504 kts | 266° |
| 2026-05-04 13:34 | 54.17892 | -70.60379 | 35664 ft | 504 kts | 266° |
| 2026-05-04 13:35 | 54.17670 | -70.78324 | 35671 ft | 505 kts | 266° |
| 2026-05-04 13:36 | 54.17506 | -70.90326 | 35669 ft | 506 kts | 266° |
| 2026-05-04 13:36 | 54.17329 | -71.02322 | 35670 ft | 507 kts | 266° |
| 2026-05-04 13:37 | 54.17142 | -71.14358 | 35663 ft | 507 kts | 266° |
| 2026-05-04 13:37 | 54.16944 | -71.26377 | 35673 ft | 507 kts | 266° |
| 2026-05-04 13:38 | 54.16733 | -71.38375 | 35674 ft | 506 kts | 266° |
| 2026-05-04 13:38 | 54.16507 | -71.50382 | 35676 ft | 506 kts | 266° |
| 2026-05-04 13:39 | 54.16274 | -71.62377 | 35672 ft | 506 kts | 266° |
| 2026-05-04 13:39 | 54.16026 | -71.74379 | 35674 ft | 506 kts | 266° |
| 2026-05-04 13:40 | 54.15767 | -71.86371 | 35673 ft | 506 kts | 266° |
| 2026-05-04 13:40 | 54.15498 | -71.98350 | 35672 ft | 506 kts | 266° |
| 2026-05-04 13:41 | 54.15216 | -72.10345 | 35675 ft | 506 kts | 266° |
| 2026-05-04 13:41 | 54.14920 | -72.22318 | 35677 ft | 506 kts | 265° |
| 2026-05-04 13:42 | 54.14510 | -72.38282 | 35670 ft | 506 kts | 265° |
| 2026-05-04 13:42 | 54.14186 | -72.50276 | 35679 ft | 506 kts | 265° |
| 2026-05-04 13:43 | 54.14056 | -72.55005 | 35686 ft | 506 kts | 265° |
| 2026-05-04 13:43 | 54.13909 | -72.60251 | 35689 ft | 506 kts | 265° |
| 2026-05-04 13:44 | 54.13566 | -72.72226 | 35684 ft | 506 kts | 265° |
| 2026-05-04 13:44 | 54.13214 | -72.84230 | 35682 ft | 506 kts | 265° |
| 2026-05-04 13:45 | 54.12843 | -72.96210 | 35687 ft | 505 kts | 265° |
| 2026-05-04 13:45 | 54.12462 | -73.08184 | 35682 ft | 506 kts | 265° |
| 2026-05-04 13:46 | 54.12072 | -73.20156 | 35684 ft | 506 kts | 265° |
| 2026-05-04 13:46 | 54.11720 | -73.30663 | 35684 ft | 506 kts | 265° |
| 2026-05-04 13:47 | 54.11336 | -73.41752 | 35690 ft | 506 kts | 265° |
| 2026-05-04 13:47 | 54.10910 | -73.53732 | 35680 ft | 507 kts | 265° |
| 2026-05-04 13:48 | 54.10468 | -73.65729 | 35686 ft | 508 kts | 265° |
| 2026-05-04 13:48 | 54.10022 | -73.77748 | 35688 ft | 508 kts | 265° |
| 2026-05-04 13:49 | 54.09563 | -73.89753 | 35685 ft | 508 kts | 265° |
| 2026-05-04 13:49 | 54.09084 | -74.01768 | 35681 ft | 508 kts | 264° |
| 2026-05-04 13:50 | 54.08597 | -74.13764 | 35683 ft | 508 kts | 264° |
| 2026-05-04 13:50 | 54.08098 | -74.25770 | 35681 ft | 507 kts | 264° |
| 2026-05-04 13:51 | 54.07587 | -74.37748 | 35680 ft | 507 kts | 264° |
| 2026-05-04 13:51 | 54.07068 | -74.49696 | 35673 ft | 506 kts | 264° |
| 2026-05-04 13:52 | 54.06271 | -74.67544 | 35678 ft | 506 kts | 264° |
| 2026-05-04 13:53 | 54.05722 | -74.79469 | 35673 ft | 506 kts | 264° |
| 2026-05-04 13:53 | 54.05160 | -74.91408 | 35671 ft | 506 kts | 264° |
| 2026-05-04 13:54 | 54.04294 | -75.09296 | 35662 ft | 506 kts | 264° |
| 2026-05-04 13:55 | 54.03404 | -75.27162 | 35659 ft | 505 kts | 264° |
| 2026-05-04 13:55 | 54.02489 | -75.45028 | 35653 ft | 506 kts | 264° |
| 2026-05-04 13:56 | 54.01863 | -75.56959 | 35639 ft | 506 kts | 264° |
| 2026-05-04 13:57 | 54.00910 | -75.74648 | 35611 ft | 489 kts | 263° |
| 2026-05-04 13:58 | 53.99637 | -75.97548 | 35631 ft | 487 kts | 263° |
| 2026-05-04 13:58 | 53.98654 | -76.14739 | 35612 ft | 487 kts | 263° |
| 2026-05-04 13:59 | 53.97987 | -76.26199 | 35609 ft | 487 kts | 263° |
| 2026-05-04 14:00 | 53.96958 | -76.43369 | 35598 ft | 488 kts | 263° |
| 2026-05-04 14:00 | 53.95908 | -76.60557 | 35595 ft | 487 kts | 263° |
| 2026-05-04 14:01 | 53.95197 | -76.72004 | 35601 ft | 487 kts | 263° |
| 2026-05-04 14:02 | 53.94107 | -76.89147 | 35589 ft | 487 kts | 263° |
| 2026-05-04 14:02 | 53.93377 | -77.00472 | 35590 ft | 487 kts | 263° |
| 2026-05-04 14:03 | 53.92759 | -77.09902 | 35588 ft | 487 kts | 263° |
| 2026-05-04 14:04 | 53.91648 | -77.26531 | 35581 ft | 486 kts | 263° |
| 2026-05-04 14:04 | 53.90874 | -77.37917 | 35581 ft | 486 kts | 263° |
| 2026-05-04 14:05 | 53.89696 | -77.54961 | 35581 ft | 485 kts | 263° |
| 2026-05-04 14:06 | 53.88897 | -77.66318 | 35574 ft | 485 kts | 262° |
| 2026-05-04 14:06 | 53.88087 | -77.77646 | 35571 ft | 485 kts | 262° |
| 2026-05-04 14:07 | 53.87268 | -77.88983 | 35568 ft | 484 kts | 262° |
| 2026-05-04 14:07 | 53.86437 | -78.00323 | 35574 ft | 484 kts | 262° |
| 2026-05-04 14:08 | 53.85597 | -78.11639 | 35572 ft | 484 kts | 262° |
| 2026-05-04 14:08 | 53.84745 | -78.22964 | 35568 ft | 485 kts | 262° |
| 2026-05-04 14:09 | 53.83450 | -78.39954 | 35574 ft | 485 kts | 262° |
| 2026-05-04 14:10 | 53.82126 | -78.56940 | 35564 ft | 485 kts | 262° |
| 2026-05-04 14:10 | 53.81232 | -78.68254 | 35574 ft | 485 kts | 262° |
| 2026-05-04 14:11 | 53.80328 | -78.79542 | 35571 ft | 485 kts | 262° |
| 2026-05-04 14:11 | 53.78945 | -78.96547 | 35572 ft | 486 kts | 262° |
| 2026-05-04 14:12 | 53.78015 | -79.07834 | 35572 ft | 485 kts | 262° |
| 2026-05-04 14:13 | 53.76599 | -79.24757 | 35574 ft | 484 kts | 261° |
| 2026-05-04 14:13 | 53.75648 | -79.35921 | 35569 ft | 483 kts | 261° |
| 2026-05-04 14:14 | 53.74682 | -79.47151 | 35566 ft | 483 kts | 261° |
| 2026-05-04 14:14 | 53.73216 | -79.63997 | 35554 ft | 483 kts | 261° |
| 2026-05-04 14:15 | 53.71226 | -79.86438 | 35544 ft | 483 kts | 261° |
| 2026-05-04 14:16 | 53.69645 | -80.03209 | 35541 ft | 482 kts | 258° |
| 2026-05-04 14:17 | 53.67560 | -80.19827 | 35532 ft | 484 kts | 257° |
| 2026-05-04 14:18 | 53.65412 | -80.36470 | 35495 ft | 484 kts | 257° |
| 2026-05-04 14:19 | 53.62571 | -80.58598 | 35497 ft | 482 kts | 257° |
| 2026-05-04 14:19 | 53.61142 | -80.69614 | 35487 ft | 482 kts | 257° |
| 2026-05-04 14:20 | 53.59696 | -80.80641 | 35481 ft | 482 kts | 257° |
| 2026-05-04 14:20 | 53.58249 | -80.91627 | 35468 ft | 481 kts | 257° |
| 2026-05-04 14:21 | 53.56057 | -81.08108 | 35461 ft | 480 kts | 257° |
| 2026-05-04 14:21 | 53.54584 | -81.19053 | 35461 ft | 480 kts | 257° |
| 2026-05-04 14:22 | 53.53103 | -81.29994 | 35460 ft | 480 kts | 257° |
| 2026-05-04 14:22 | 53.51608 | -81.40935 | 35447 ft | 480 kts | 257° |
| 2026-05-04 14:23 | 53.51103 | -81.44624 | 35440 ft | 480 kts | 257° |
| 2026-05-04 14:24 | 53.49596 | -81.55550 | 35420 ft | 480 kts | 257° |
| 2026-05-04 14:24 | 53.48083 | -81.66477 | 35423 ft | 480 kts | 257° |
| 2026-05-04 14:25 | 53.46562 | -81.77374 | 35420 ft | 479 kts | 256° |
| 2026-05-04 14:25 | 53.44258 | -81.93709 | 35418 ft | 480 kts | 256° |
| 2026-05-04 14:26 | 53.42710 | -82.04590 | 35410 ft | 479 kts | 256° |
| 2026-05-04 14:26 | 53.41152 | -82.15441 | 35412 ft | 479 kts | 256° |
| 2026-05-04 14:27 | 53.39586 | -82.26298 | 35410 ft | 479 kts | 256° |
| 2026-05-04 14:27 | 53.38014 | -82.37151 | 35406 ft | 479 kts | 256° |
| 2026-05-04 14:28 | 53.36426 | -82.47971 | 35420 ft | 479 kts | 256° |
| 2026-05-04 14:28 | 53.35101 | -82.56966 | 35404 ft | 479 kts | 256° |
| 2026-05-04 14:29 | 53.31890 | -82.78552 | 35402 ft | 477 kts | 256° |
| 2026-05-04 14:30 | 53.30273 | -82.89325 | 35404 ft | 477 kts | 256° |
| 2026-05-04 14:31 | 53.27830 | -83.05448 | 35407 ft | 477 kts | 256° |
| 2026-05-04 14:32 | 53.24542 | -83.26907 | 35403 ft | 477 kts | 255° |
| 2026-05-04 14:32 | 53.22880 | -83.37621 | 35394 ft | 476 kts | 255° |
| 2026-05-04 14:33 | 53.21511 | -83.46396 | 35391 ft | 476 kts | 255° |
| 2026-05-04 14:33 | 53.19840 | -83.57094 | 35397 ft | 476 kts | 255° |
| 2026-05-04 14:34 | 53.18159 | -83.67781 | 35397 ft | 476 kts | 255° |
| 2026-05-04 14:34 | 53.16460 | -83.78461 | 35388 ft | 477 kts | 255° |
| 2026-05-04 14:35 | 53.14754 | -83.89136 | 35383 ft | 477 kts | 255° |
| 2026-05-04 14:35 | 53.13051 | -83.99723 | 35383 ft | 476 kts | 255° |
| 2026-05-04 14:36 | 53.11351 | -84.10364 | 35387 ft | 476 kts | 255° |
| 2026-05-04 14:36 | 53.09610 | -84.20983 | 35374 ft | 476 kts | 255° |
| 2026-05-04 14:37 | 53.07861 | -84.31585 | 35380 ft | 474 kts | 255° |
| 2026-05-04 14:37 | 53.06127 | -84.42127 | 35367 ft | 473 kts | 255° |
| 2026-05-04 14:38 | 53.04379 | -84.52657 | 35368 ft | 474 kts | 254° |
| 2026-05-04 14:38 | 53.02619 | -84.63190 | 35362 ft | 473 kts | 255° |
| 2026-05-04 14:39 | 53.00859 | -84.73733 | 35339 ft | 473 kts | 255° |
| 2026-05-04 14:39 | 52.99092 | -84.84247 | 35344 ft | 473 kts | 254° |
| 2026-05-04 14:40 | 52.96403 | -84.99998 | 35332 ft | 473 kts | 254° |
| 2026-05-04 14:40 | 52.94605 | -85.10465 | 35326 ft | 471 kts | 254° |
| 2026-05-04 14:41 | 52.92792 | -85.20924 | 35314 ft | 472 kts | 253° |
| 2026-05-04 14:42 | 52.89155 | -85.41882 | 35302 ft | 475 kts | 253° |
| 2026-05-04 14:42 | 52.87315 | -85.52386 | 35287 ft | 475 kts | 253° |
| 2026-05-04 14:43 | 52.86668 | -85.56056 | 35278 ft | 476 kts | 253° |
| 2026-05-04 14:43 | 52.85795 | -85.60933 | 35288 ft | 475 kts | 253° |
| 2026-05-04 14:44 | 52.83944 | -85.71423 | 35268 ft | 474 kts | 254° |
| 2026-05-04 14:44 | 52.82085 | -85.81883 | 35264 ft | 473 kts | 253° |
| 2026-05-04 14:45 | 52.80204 | -85.92293 | 35243 ft | 472 kts | 253° |
| 2026-05-04 14:45 | 52.78348 | -86.02599 | 35241 ft | 470 kts | 253° |
| 2026-05-04 14:46 | 52.76468 | -86.12938 | 35181 ft | 471 kts | 253° |
| 2026-05-04 14:46 | 52.74578 | -86.23266 | 35187 ft | 471 kts | 253° |
| 2026-05-04 14:47 | 52.72678 | -86.33616 | 35177 ft | 472 kts | 253° |
| 2026-05-04 14:47 | 52.70769 | -86.43980 | 35172 ft | 473 kts | 253° |
| 2026-05-04 14:48 | 52.68847 | -86.54337 | 35165 ft | 473 kts | 253° |
| 2026-05-04 14:48 | 52.66912 | -86.64697 | 35160 ft | 473 kts | 253° |
| 2026-05-04 14:49 | 52.64971 | -86.75049 | 35150 ft | 473 kts | 252° |
| 2026-05-04 14:49 | 52.63016 | -86.85412 | 35137 ft | 474 kts | 252° |
| 2026-05-04 14:50 | 52.61047 | -86.95775 | 35135 ft | 474 kts | 252° |
| 2026-05-04 14:50 | 52.59071 | -87.06122 | 35131 ft | 474 kts | 252° |
| 2026-05-04 14:51 | 52.57092 | -87.16460 | 35124 ft | 474 kts | 252° |
| 2026-05-04 14:51 | 52.55100 | -87.26768 | 35115 ft | 472 kts | 252° |
| 2026-05-04 14:52 | 52.53106 | -87.37032 | 35109 ft | 472 kts | 252° |
| 2026-05-04 14:52 | 52.51106 | -87.47295 | 35106 ft | 472 kts | 252° |
| 2026-05-04 14:53 | 52.49094 | -87.57568 | 35096 ft | 473 kts | 252° |
| 2026-05-04 14:53 | 52.47076 | -87.67826 | 35087 ft | 472 kts | 252° |
| 2026-05-04 14:54 | 52.45043 | -87.78081 | 35078 ft | 473 kts | 252° |
| 2026-05-04 14:54 | 52.43003 | -87.88306 | 35082 ft | 472 kts | 251° |
| 2026-05-04 14:55 | 52.40957 | -87.98522 | 35078 ft | 472 kts | 251° |
| 2026-05-04 14:55 | 52.38909 | -88.08714 | 35082 ft | 472 kts | 251° |
| 2026-05-04 14:56 | 52.36846 | -88.18899 | 35080 ft | 471 kts | 251° |
| 2026-05-04 14:56 | 52.34777 | -88.29055 | 35097 ft | 471 kts | 251° |
| 2026-05-04 14:57 | 52.32691 | -88.39235 | 35081 ft | 473 kts | 251° |
| 2026-05-04 14:57 | 52.30596 | -88.49437 | 35078 ft | 473 kts | 251° |
| 2026-05-04 14:58 | 52.28511 | -88.59553 | 35089 ft | 473 kts | 251° |
| 2026-05-04 14:58 | 52.26399 | -88.69741 | 35089 ft | 474 kts | 251° |
| 2026-05-04 14:59 | 52.24272 | -88.79941 | 35100 ft | 474 kts | 251° |
| 2026-05-04 15:00 | 52.21059 | -88.95216 | 35106 ft | 475 kts | 251° |
| 2026-05-04 15:00 | 52.18905 | -89.05407 | 35112 ft | 476 kts | 251° |
| 2026-05-04 15:01 | 52.15655 | -89.20697 | 35109 ft | 477 kts | 251° |
| 2026-05-04 15:01 | 52.13475 | -89.30880 | 35115 ft | 477 kts | 251° |
| 2026-05-04 15:02 | 52.11289 | -89.41044 | 35118 ft | 477 kts | 251° |
| 2026-05-04 15:02 | 52.09085 | -89.51250 | 35124 ft | 477 kts | 251° |
| 2026-05-04 15:03 | 52.08469 | -89.54090 | 35126 ft | 477 kts | 251° |
| 2026-05-04 15:03 | 52.07302 | -89.59468 | 35128 ft | 477 kts | 250° |
| 2026-05-04 15:04 | 52.05087 | -89.69621 | 35129 ft | 477 kts | 251° |
| 2026-05-04 15:04 | 52.02860 | -89.79781 | 35125 ft | 478 kts | 250° |
| 2026-05-04 15:05 | 52.00624 | -89.89939 | 35129 ft | 477 kts | 250° |
| 2026-05-04 15:05 | 51.98384 | -90.00056 | 35138 ft | 477 kts | 250° |
| 2026-05-04 15:06 | 51.96138 | -90.10172 | 35149 ft | 477 kts | 250° |
| 2026-05-04 15:07 | 51.92756 | -90.25277 | 35137 ft | 477 kts | 250° |
| 2026-05-04 15:07 | 51.90484 | -90.35362 | 35149 ft | 477 kts | 250° |
| 2026-05-04 15:08 | 51.88205 | -90.45439 | 35149 ft | 477 kts | 250° |
| 2026-05-04 15:08 | 51.85917 | -90.55510 | 35142 ft | 477 kts | 250° |
| 2026-05-04 15:09 | 51.83603 | -90.65640 | 35149 ft | 478 kts | 250° |
| 2026-05-04 15:09 | 51.81290 | -90.75723 | 35152 ft | 479 kts | 250° |
| 2026-05-04 15:10 | 51.77790 | -90.90878 | 35151 ft | 481 kts | 249° |
| 2026-05-04 15:11 | 51.74262 | -91.06059 | 35158 ft | 482 kts | 249° |
| 2026-05-04 15:11 | 51.71899 | -91.16171 | 35159 ft | 482 kts | 249° |
| 2026-05-04 15:12 | 51.69545 | -91.26195 | 35167 ft | 481 kts | 249° |
| 2026-05-04 15:12 | 51.67167 | -91.36266 | 35169 ft | 481 kts | 249° |
| 2026-05-04 15:13 | 51.64778 | -91.46342 | 35176 ft | 481 kts | 249° |
| 2026-05-04 15:13 | 51.62387 | -91.56382 | 35177 ft | 481 kts | 249° |
| 2026-05-04 15:14 | 51.59984 | -91.66421 | 35188 ft | 481 kts | 249° |
| 2026-05-04 15:14 | 51.57571 | -91.76454 | 35194 ft | 481 kts | 249° |
| 2026-05-04 15:15 | 51.55559 | -91.84777 | 35193 ft | 481 kts | 249° |
| 2026-05-04 15:15 | 51.53117 | -91.94847 | 35220 ft | 481 kts | 249° |
| 2026-05-04 15:16 | 51.49479 | -92.09754 | 35276 ft | 480 kts | 249° |
| 2026-05-04 15:17 | 51.45816 | -92.24706 | 35318 ft | 480 kts | 249° |
| 2026-05-04 15:17 | 51.42116 | -92.39661 | 35318 ft | 481 kts | 249° |
| 2026-05-04 15:18 | 51.39642 | -92.49600 | 35327 ft | 481 kts | 249° |
| 2026-05-04 15:19 | 51.35917 | -92.64510 | 35327 ft | 481 kts | 248° |
| 2026-05-04 15:19 | 51.32177 | -92.79374 | 35328 ft | 480 kts | 248° |
| 2026-05-04 15:20 | 51.29675 | -92.89261 | 35332 ft | 480 kts | 248° |
| 2026-05-04 15:20 | 51.27168 | -92.99122 | 35336 ft | 479 kts | 248° |
| 2026-05-04 15:21 | 51.24653 | -93.08973 | 35336 ft | 479 kts | 248° |
| 2026-05-04 15:22 | 51.20871 | -93.23711 | 35338 ft | 478 kts | 248° |
| 2026-05-04 15:22 | 51.17076 | -93.38407 | 35344 ft | 478 kts | 248° |
| 2026-05-04 15:23 | 51.16135 | -93.42032 | 35351 ft | 478 kts | 248° |
| 2026-05-04 15:23 | 51.15052 | -93.46196 | 35351 ft | 478 kts | 248° |
| 2026-05-04 15:24 | 51.09938 | -93.65782 | 35349 ft | 479 kts | 248° |
| 2026-05-04 15:25 | 51.07366 | -93.75551 | 35346 ft | 479 kts | 247° |
| 2026-05-04 15:26 | 51.02871 | -93.89751 | 35347 ft | 479 kts | 243° |
| 2026-05-04 15:26 | 50.98286 | -94.03759 | 35347 ft | 479 kts | 243° |
| 2026-05-04 15:27 | 50.93698 | -94.17823 | 35352 ft | 479 kts | 243° |
| 2026-05-04 15:28 | 50.89093 | -94.31878 | 35352 ft | 479 kts | 243° |
| 2026-05-04 15:29 | 50.84471 | -94.45896 | 35369 ft | 478 kts | 243° |
| 2026-05-04 15:30 | 50.73651 | -94.78423 | 35397 ft | 477 kts | 243° |
| 2026-05-04 15:31 | 50.68985 | -94.92309 | 35403 ft | 478 kts | 243° |
| 2026-05-04 15:32 | 50.61175 | -95.15401 | 35423 ft | 478 kts | 243° |
| 2026-05-04 15:34 | 50.53310 | -95.38438 | 35437 ft | 478 kts | 243° |
| 2026-05-04 15:34 | 50.48570 | -95.52220 | 35441 ft | 478 kts | 243° |
| 2026-05-04 15:35 | 50.43821 | -95.65955 | 35471 ft | 477 kts | 243° |
| 2026-05-04 15:36 | 50.39091 | -95.79561 | 35495 ft | 476 kts | 243° |
| 2026-05-04 15:36 | 50.35894 | -95.88719 | 35529 ft | 475 kts | 243° |
| 2026-05-04 15:37 | 50.32733 | -95.97738 | 35541 ft | 476 kts | 243° |
| 2026-05-04 15:37 | 50.29519 | -96.06881 | 35556 ft | 476 kts | 243° |
| 2026-05-04 15:38 | 50.26350 | -96.15864 | 35588 ft | 475 kts | 243° |
| 2026-05-04 15:38 | 50.23148 | -96.24899 | 35599 ft | 475 kts | 242° |
| 2026-05-04 15:39 | 50.19919 | -96.33984 | 35608 ft | 475 kts | 242° |
| 2026-05-04 15:40 | 50.15113 | -96.47443 | 35622 ft | 476 kts | 242° |
| 2026-05-04 15:40 | 50.11877 | -96.56473 | 35615 ft | 477 kts | 242° |
| 2026-05-04 15:41 | 50.08637 | -96.65480 | 35634 ft | 477 kts | 242° |
| 2026-05-04 15:41 | 50.05380 | -96.74503 | 35626 ft | 478 kts | 242° |
| 2026-05-04 15:42 | 50.02121 | -96.83497 | 35629 ft | 477 kts | 242° |
| 2026-05-04 15:42 | 49.98850 | -96.92483 | 35634 ft | 477 kts | 242° |
| 2026-05-04 15:43 | 49.96229 | -96.99670 | 35632 ft | 476 kts | 242° |
| 2026-05-04 15:44 | 49.92997 | -97.08507 | 35640 ft | 475 kts | 242° |
| 2026-05-04 15:44 | 49.89733 | -97.17395 | 35634 ft | 474 kts | 242° |
| 2026-05-04 15:45 | 49.86464 | -97.26277 | 35639 ft | 473 kts | 242° |
| 2026-05-04 15:45 | 49.83193 | -97.35115 | 35642 ft | 473 kts | 242° |
| 2026-05-04 15:46 | 49.79915 | -97.43944 | 35639 ft | 473 kts | 242° |
| 2026-05-04 15:46 | 49.76660 | -97.52692 | 35644 ft | 473 kts | 242° |
| 2026-05-04 15:47 | 49.73366 | -97.61524 | 35648 ft | 474 kts | 242° |
| 2026-05-04 15:47 | 49.70063 | -97.70353 | 35651 ft | 474 kts | 242° |
| 2026-05-04 15:48 | 49.66747 | -97.79162 | 35662 ft | 475 kts | 241° |
| 2026-05-04 15:48 | 49.61746 | -97.92389 | 35671 ft | 476 kts | 241° |
| 2026-05-04 15:49 | 49.58408 | -98.01206 | 35679 ft | 476 kts | 241° |
| 2026-05-04 15:49 | 49.55059 | -98.10007 | 35672 ft | 476 kts | 241° |
| 2026-05-04 15:50 | 49.51702 | -98.18802 | 35675 ft | 477 kts | 241° |
| 2026-05-04 15:50 | 49.48338 | -98.27583 | 35685 ft | 476 kts | 241° |
| 2026-05-04 15:51 | 49.44972 | -98.36337 | 35691 ft | 475 kts | 241° |
| 2026-05-04 15:51 | 49.41611 | -98.45058 | 35699 ft | 474 kts | 241° |
| 2026-05-04 15:52 | 49.38239 | -98.53774 | 35707 ft | 474 kts | 241° |
| 2026-05-04 15:52 | 49.34870 | -98.62450 | 35704 ft | 474 kts | 241° |
| 2026-05-04 15:53 | 49.31495 | -98.71121 | 35708 ft | 473 kts | 241° |
| 2026-05-04 15:53 | 49.28122 | -98.79752 | 35713 ft | 472 kts | 241° |
| 2026-05-04 15:54 | 49.24745 | -98.88367 | 35711 ft | 471 kts | 241° |
| 2026-05-04 15:54 | 49.21370 | -98.96948 | 35712 ft | 472 kts | 241° |
| 2026-05-04 15:55 | 49.17979 | -99.05551 | 35712 ft | 471 kts | 241° |
| 2026-05-04 15:55 | 49.14589 | -99.14110 | 35716 ft | 471 kts | 241° |
| 2026-05-04 15:56 | 49.11197 | -99.22651 | 35721 ft | 471 kts | 241° |
| 2026-05-04 15:56 | 49.07792 | -99.31195 | 35727 ft | 471 kts | 241° |
| 2026-05-04 15:57 | 49.04384 | -99.39723 | 35730 ft | 470 kts | 241° |
| 2026-05-04 15:57 | 49.00973 | -99.48227 | 35729 ft | 471 kts | 241° |
| 2026-05-04 15:58 | 48.97572 | -99.56678 | 35734 ft | 471 kts | 241° |
| 2026-05-04 15:58 | 48.94148 | -99.65175 | 35730 ft | 471 kts | 241° |
| 2026-05-04 15:59 | 48.91274 | -99.72275 | 35731 ft | 471 kts | 240° |
| 2026-05-04 15:59 | 48.87838 | -99.80735 | 35731 ft | 471 kts | 241° |
| 2026-05-04 16:00 | 48.84399 | -99.89189 | 35730 ft | 470 kts | 241° |
| 2026-05-04 16:00 | 48.80956 | -99.97614 | 35740 ft | 469 kts | 240° |
| 2026-05-04 16:01 | 48.77515 | -100.06002 | 35748 ft | 468 kts | 241° |
| 2026-05-04 16:01 | 48.74080 | -100.14366 | 35758 ft | 467 kts | 240° |
| 2026-05-04 16:02 | 48.70641 | -100.22713 | 35835 ft | 469 kts | 240° |
| 2026-05-04 16:02 | 48.67179 | -100.31081 | 36457 ft | 469 kts | 240° |
| 2026-05-04 16:03 | 48.65804 | -100.34396 | 36706 ft | 469 kts | 240° |
| 2026-05-04 16:03 | 48.64469 | -100.37610 | 37115 ft | 463 kts | 240° |
| 2026-05-04 16:04 | 48.62764 | -100.41701 | 37647 ft | 457 kts | 240° |
| 2026-05-04 16:04 | 48.59348 | -100.49917 | 37775 ft | 467 kts | 240° |
| 2026-05-04 16:04 | 48.57612 | -100.54085 | 37781 ft | 471 kts | 240° |
| 2026-05-04 16:05 | 48.54123 | -100.62420 | 37771 ft | 467 kts | 240° |
| 2026-05-04 16:06 | 48.48968 | -100.74678 | 37779 ft | 462 kts | 240° |
| 2026-05-04 16:07 | 48.42079 | -100.91000 | 37791 ft | 463 kts | 240° |
| 2026-05-04 16:08 | 48.35133 | -101.07343 | 37802 ft | 465 kts | 240° |
| 2026-05-04 16:09 | 48.26384 | -101.27804 | 37819 ft | 467 kts | 239° |
| 2026-05-04 16:10 | 48.18859 | -101.43732 | 37824 ft | 468 kts | 236° |
| 2026-05-04 16:11 | 48.11147 | -101.59430 | 37834 ft | 467 kts | 237° |
| 2026-05-04 16:12 | 47.99738 | -101.82856 | 37836 ft | 463 kts | 236° |
| 2026-05-04 16:13 | 47.92125 | -101.98364 | 37849 ft | 465 kts | 236° |
| 2026-05-04 16:14 | 47.84466 | -102.13864 | 37844 ft | 464 kts | 236° |
| 2026-05-04 16:16 | 47.74849 | -102.33225 | 37880 ft | 467 kts | 236° |
| 2026-05-04 16:17 | 47.65167 | -102.52567 | 37891 ft | 464 kts | 236° |
| 2026-05-04 16:18 | 47.57461 | -102.67887 | 37884 ft | 462 kts | 236° |
| 2026-05-04 16:19 | 47.47869 | -102.86802 | 37892 ft | 458 kts | 236° |
| 2026-05-04 16:20 | 47.38283 | -103.05579 | 37886 ft | 458 kts | 236° |
| 2026-05-04 16:22 | 47.28680 | -103.24288 | 37889 ft | 458 kts | 236° |
| 2026-05-04 16:23 | 47.21659 | -103.37873 | 37900 ft | 458 kts | 236° |
| 2026-05-04 16:25 | 47.10105 | -103.60077 | 37905 ft | 457 kts | 236° |
| 2026-05-04 16:26 | 46.96547 | -103.85910 | 37920 ft | 456 kts | 236° |
| 2026-05-04 16:28 | 46.86858 | -104.04238 | 37915 ft | 455 kts | 235° |
| 2026-05-04 16:29 | 46.73296 | -104.29677 | 37926 ft | 452 kts | 235° |
| 2026-05-04 16:31 | 46.63611 | -104.47698 | 37932 ft | 452 kts | 235° |
| 2026-05-04 16:32 | 46.51970 | -104.69207 | 37945 ft | 451 kts | 235° |
| 2026-05-04 16:33 | 46.44224 | -104.83437 | 37947 ft | 451 kts | 235° |
| 2026-05-04 16:34 | 46.38382 | -104.94112 | 37964 ft | 451 kts | 234° |
| 2026-05-04 16:35 | 46.26636 | -105.15462 | 37977 ft | 453 kts | 234° |
| 2026-05-04 16:36 | 46.21217 | -105.26551 | 37986 ft | 448 kts | 243° |
| 2026-05-04 16:37 | 46.16613 | -105.38287 | 37990 ft | 447 kts | 243° |
| 2026-05-04 16:38 | 46.10431 | -105.53837 | 37989 ft | 447 kts | 243° |
| 2026-05-04 16:39 | 46.02685 | -105.73140 | 38002 ft | 445 kts | 243° |
| 2026-05-04 16:40 | 45.96489 | -105.88480 | 38003 ft | 445 kts | 242° |
| 2026-05-04 16:41 | 45.88687 | -106.07674 | 38011 ft | 445 kts | 242° |
| 2026-05-04 16:43 | 45.81619 | -106.24955 | 38009 ft | 446 kts | 242° |
| 2026-05-04 16:43 | 45.80336 | -106.28080 | 38008 ft | 446 kts | 242° |
| 2026-05-04 16:45 | 45.70876 | -106.51014 | 38012 ft | 446 kts | 242° |
| 2026-05-04 16:46 | 45.63489 | -106.68786 | 38013 ft | 447 kts | 242° |
| 2026-05-04 16:47 | 45.57111 | -106.84044 | 38021 ft | 448 kts | 241° |
| 2026-05-04 16:48 | 45.50690 | -106.99316 | 38030 ft | 449 kts | 241° |
| 2026-05-04 16:49 | 45.44246 | -107.14563 | 38019 ft | 449 kts | 241° |
| 2026-05-04 16:50 | 45.37766 | -107.29818 | 38018 ft | 450 kts | 241° |
| 2026-05-04 16:51 | 45.32897 | -107.41225 | 38018 ft | 450 kts | 241° |
| 2026-05-04 16:52 | 45.26375 | -107.56422 | 38016 ft | 450 kts | 241° |
| 2026-05-04 16:53 | 45.21467 | -107.67817 | 38007 ft | 451 kts | 240° |
| 2026-05-04 16:54 | 45.14903 | -107.82972 | 38019 ft | 451 kts | 240° |
| 2026-05-04 16:55 | 45.05017 | -108.05651 | 38021 ft | 451 kts | 240° |
| 2026-05-04 16:56 | 44.96738 | -108.24508 | 37994 ft | 453 kts | 240° |
| 2026-05-04 16:57 | 44.91745 | -108.35815 | 38011 ft | 453 kts | 240° |
| 2026-05-04 16:58 | 44.85053 | -108.50904 | 38010 ft | 454 kts | 240° |
| 2026-05-04 17:00 | 44.74999 | -108.73426 | 38014 ft | 454 kts | 239° |
| 2026-05-04 17:01 | 44.66552 | -108.92209 | 38031 ft | 454 kts | 239° |
| 2026-05-04 17:02 | 44.59779 | -109.07186 | 38047 ft | 455 kts | 239° |
| 2026-05-04 17:03 | 44.55196 | -109.17274 | 38060 ft | 456 kts | 239° |
| 2026-05-04 17:03 | 44.54315 | -109.19206 | 38063 ft | 456 kts | 239° |
| 2026-05-04 17:04 | 44.47475 | -109.34193 | 38049 ft | 457 kts | 239° |
| 2026-05-04 17:05 | 44.40613 | -109.49148 | 38045 ft | 456 kts | 239° |
| 2026-05-04 17:06 | 44.35451 | -109.60336 | 38037 ft | 456 kts | 239° |
| 2026-05-04 17:07 | 44.30861 | -109.70253 | 38034 ft | 457 kts | 238° |
| 2026-05-04 17:07 | 44.26818 | -109.78959 | 38021 ft | 457 kts | 238° |
| 2026-05-04 17:08 | 44.21626 | -109.90111 | 38012 ft | 458 kts | 238° |
| 2026-05-04 17:09 | 44.18149 | -109.97551 | 38012 ft | 457 kts | 238° |
| 2026-05-04 17:09 | 44.14706 | -110.04902 | 38009 ft | 456 kts | 238° |
| 2026-05-04 17:10 | 44.06016 | -110.23361 | 38006 ft | 457 kts | 238° |
| 2026-05-04 17:11 | 44.02525 | -110.30743 | 37997 ft | 457 kts | 238° |
| 2026-05-04 17:12 | 43.97271 | -110.41823 | 37993 ft | 458 kts | 238° |
| 2026-05-04 17:13 | 43.88489 | -110.60254 | 37980 ft | 458 kts | 238° |
| 2026-05-04 17:14 | 43.81449 | -110.74943 | 37984 ft | 457 kts | 238° |
| 2026-05-04 17:15 | 43.76158 | -110.85927 | 37981 ft | 457 kts | 238° |
| 2026-05-04 17:16 | 43.69081 | -111.00560 | 37977 ft | 458 kts | 237° |
| 2026-05-04 17:17 | 43.61974 | -111.15184 | 37961 ft | 459 kts | 237° |
| 2026-05-04 17:18 | 43.54844 | -111.29777 | 37955 ft | 459 kts | 237° |
| 2026-05-04 17:19 | 43.47682 | -111.44374 | 37956 ft | 460 kts | 237° |
| 2026-05-04 17:20 | 43.40518 | -111.58897 | 37944 ft | 460 kts | 237° |
| 2026-05-04 17:20 | 43.35119 | -111.69795 | 37945 ft | 460 kts | 237° |
| 2026-05-04 17:21 | 43.27895 | -111.84312 | 37935 ft | 461 kts | 237° |
| 2026-05-04 17:22 | 43.24270 | -111.91570 | 37934 ft | 460 kts | 237° |
| 2026-05-04 17:23 | 43.19639 | -112.00822 | 37932 ft | 460 kts | 237° |
| 2026-05-04 17:24 | 43.15928 | -112.08208 | 37924 ft | 461 kts | 236° |
| 2026-05-04 17:25 | 43.08657 | -112.22632 | 37926 ft | 460 kts | 236° |
| 2026-05-04 17:26 | 43.01359 | -112.37041 | 37918 ft | 461 kts | 236° |
| 2026-05-04 17:27 | 42.92218 | -112.54997 | 37907 ft | 460 kts | 236° |
| 2026-05-04 17:28 | 42.84907 | -112.69285 | 37908 ft | 459 kts | 236° |
| 2026-05-04 17:29 | 42.73935 | -112.90679 | 37909 ft | 460 kts | 236° |
| 2026-05-04 17:31 | 42.65383 | -113.07256 | 37904 ft | 459 kts | 236° |
| 2026-05-04 17:32 | 42.56167 | -113.25007 | 37899 ft | 461 kts | 236° |
| 2026-05-04 17:33 | 42.48768 | -113.39194 | 37898 ft | 461 kts | 235° |
| 2026-05-04 17:34 | 42.41342 | -113.53356 | 37901 ft | 461 kts | 235° |
| 2026-05-04 17:35 | 42.32034 | -113.71020 | 37899 ft | 461 kts | 235° |
| 2026-05-04 17:36 | 42.28311 | -113.78051 | 37895 ft | 460 kts | 235° |
| 2026-05-04 17:36 | 42.24581 | -113.85080 | 37898 ft | 460 kts | 235° |
| 2026-05-04 17:37 | 42.20859 | -113.92084 | 37893 ft | 459 kts | 235° |
| 2026-05-04 17:37 | 42.17130 | -113.99079 | 37903 ft | 459 kts | 234° |
| 2026-05-04 17:38 | 42.13409 | -114.06049 | 37901 ft | 459 kts | 234° |
| 2026-05-04 17:38 | 42.09676 | -114.13023 | 37901 ft | 459 kts | 234° |
| 2026-05-04 17:39 | 42.04063 | -114.23470 | 37892 ft | 459 kts | 234° |
| 2026-05-04 17:39 | 42.00318 | -114.30430 | 37897 ft | 459 kts | 234° |
| 2026-05-04 17:40 | 41.96595 | -114.37326 | 37902 ft | 459 kts | 234° |
| 2026-05-04 17:40 | 41.92837 | -114.44273 | 37898 ft | 459 kts | 234° |
| 2026-05-04 17:41 | 41.89083 | -114.51201 | 37896 ft | 459 kts | 234° |
| 2026-05-04 17:41 | 41.85323 | -114.58123 | 37905 ft | 459 kts | 234° |
| 2026-05-04 17:42 | 41.81538 | -114.65071 | 37910 ft | 459 kts | 234° |
| 2026-05-04 17:42 | 41.77792 | -114.71926 | 37909 ft | 458 kts | 234° |
| 2026-05-04 17:43 | 41.76392 | -114.74487 | 37906 ft | 459 kts | 234° |
| 2026-05-04 17:43 | 41.74793 | -114.77411 | 37908 ft | 459 kts | 234° |
| 2026-05-04 17:44 | 41.71023 | -114.84292 | 37909 ft | 458 kts | 234° |
| 2026-05-04 17:44 | 41.67252 | -114.91161 | 37902 ft | 457 kts | 234° |
| 2026-05-04 17:45 | 41.63493 | -114.97991 | 37908 ft | 456 kts | 234° |
| 2026-05-04 17:45 | 41.60037 | -115.05095 | 37912 ft | 456 kts | 242° |
| 2026-05-04 17:46 | 41.57503 | -115.12835 | 37912 ft | 455 kts | 248° |
| 2026-05-04 17:46 | 41.55143 | -115.20701 | 37905 ft | 456 kts | 248° |
| 2026-05-04 17:47 | 41.52763 | -115.28546 | 37906 ft | 457 kts | 248° |
| 2026-05-04 17:47 | 41.50356 | -115.36399 | 37917 ft | 457 kts | 248° |
| 2026-05-04 17:48 | 41.47939 | -115.44235 | 37920 ft | 458 kts | 248° |
| 2026-05-04 17:48 | 41.45507 | -115.52095 | 37918 ft | 459 kts | 248° |
| 2026-05-04 17:49 | 41.43067 | -115.59957 | 37917 ft | 459 kts | 247° |
| 2026-05-04 17:49 | 41.40618 | -115.67829 | 37917 ft | 460 kts | 247° |
| 2026-05-04 17:50 | 41.38168 | -115.75681 | 37928 ft | 460 kts | 247° |
| 2026-05-04 17:50 | 41.35721 | -115.83498 | 37925 ft | 460 kts | 247° |
| 2026-05-04 17:51 | 41.33257 | -115.91350 | 37924 ft | 460 kts | 247° |
| 2026-05-04 17:51 | 41.30790 | -115.99191 | 37932 ft | 460 kts | 247° |
| 2026-05-04 17:52 | 41.28314 | -116.07039 | 37923 ft | 460 kts | 247° |
| 2026-05-04 17:52 | 41.25835 | -116.14869 | 37925 ft | 460 kts | 247° |
| 2026-05-04 17:53 | 41.23356 | -116.22689 | 37926 ft | 460 kts | 248° |
| 2026-05-04 17:53 | 41.21072 | -116.30641 | 37924 ft | 460 kts | 250° |
| 2026-05-04 17:54 | 41.18900 | -116.38622 | 37926 ft | 460 kts | 250° |
| 2026-05-04 17:54 | 41.16695 | -116.46588 | 37922 ft | 459 kts | 249° |
| 2026-05-04 17:55 | 41.14465 | -116.54533 | 37928 ft | 459 kts | 249° |
| 2026-05-04 17:55 | 41.12223 | -116.62460 | 37926 ft | 459 kts | 249° |
| 2026-05-04 17:56 | 41.09975 | -116.70383 | 37928 ft | 459 kts | 249° |
| 2026-05-04 17:56 | 41.07720 | -116.78309 | 37922 ft | 459 kts | 249° |
| 2026-05-04 17:57 | 41.05465 | -116.86220 | 37930 ft | 459 kts | 249° |
| 2026-05-04 17:57 | 41.03202 | -116.94131 | 37922 ft | 459 kts | 249° |
| 2026-05-04 17:58 | 41.00930 | -117.02042 | 37914 ft | 459 kts | 249° |
| 2026-05-04 17:58 | 40.98654 | -117.09950 | 37918 ft | 460 kts | 249° |
| 2026-05-04 17:59 | 40.96375 | -117.17846 | 37915 ft | 459 kts | 249° |
| 2026-05-04 18:00 | 40.92944 | -117.29679 | 37916 ft | 459 kts | 249° |
| 2026-05-04 18:00 | 40.90664 | -117.37514 | 37917 ft | 459 kts | 249° |
| 2026-05-04 18:01 | 40.88363 | -117.45398 | 37918 ft | 460 kts | 248° |
| 2026-05-04 18:01 | 40.86056 | -117.53281 | 37906 ft | 461 kts | 248° |
| 2026-05-04 18:02 | 40.82576 | -117.65131 | 37913 ft | 461 kts | 248° |
| 2026-05-04 18:02 | 40.80248 | -117.73028 | 37905 ft | 462 kts | 248° |
| 2026-05-04 18:03 | 40.79536 | -117.75378 | 37904 ft | 461 kts | 246° |
| 2026-05-04 18:03 | 40.78221 | -117.79034 | 37904 ft | 461 kts | 242° |
| 2026-05-04 18:04 | 40.75205 | -117.86488 | 37908 ft | 460 kts | 241° |
| 2026-05-04 18:05 | 40.70674 | -117.97617 | 37914 ft | 459 kts | 242° |
| 2026-05-04 18:05 | 40.67668 | -118.05040 | 37899 ft | 460 kts | 242° |
| 2026-05-04 18:06 | 40.63148 | -118.16200 | 37910 ft | 461 kts | 242° |
| 2026-05-04 18:06 | 40.60126 | -118.23644 | 37909 ft | 461 kts | 241° |
| 2026-05-04 18:07 | 40.57099 | -118.31080 | 37916 ft | 462 kts | 241° |
| 2026-05-04 18:07 | 40.54061 | -118.38524 | 37918 ft | 462 kts | 241° |
| 2026-05-04 18:08 | 40.51023 | -118.45945 | 37915 ft | 462 kts | 241° |
| 2026-05-04 18:08 | 40.47970 | -118.53385 | 37914 ft | 463 kts | 241° |
| 2026-05-04 18:09 | 40.41835 | -118.68286 | 37908 ft | 466 kts | 241° |
| 2026-05-04 18:10 | 40.38741 | -118.75772 | 37905 ft | 467 kts | 241° |
| 2026-05-04 18:10 | 40.35640 | -118.83253 | 37908 ft | 468 kts | 241° |
| 2026-05-04 18:11 | 40.32520 | -118.90764 | 37905 ft | 469 kts | 241° |
| 2026-05-04 18:11 | 40.29399 | -118.98265 | 37917 ft | 469 kts | 241° |
| 2026-05-04 18:12 | 40.26270 | -119.05763 | 37915 ft | 470 kts | 240° |
| 2026-05-04 18:12 | 40.23126 | -119.13275 | 37922 ft | 470 kts | 240° |
| 2026-05-04 18:13 | 40.19974 | -119.20794 | 37926 ft | 471 kts | 240° |
| 2026-05-04 18:14 | 40.15446 | -119.32215 | 37937 ft | 473 kts | 243° |
| 2026-05-04 18:14 | 40.12543 | -119.39918 | 37947 ft | 472 kts | 243° |
| 2026-05-04 18:15 | 40.06667 | -119.55217 | 37967 ft | 473 kts | 242° |
| 2026-05-04 18:16 | 40.04173 | -119.61653 | 37966 ft | 474 kts | 242° |
| 2026-05-04 18:16 | 40.01215 | -119.69269 | 37980 ft | 474 kts | 242° |
| 2026-05-04 18:17 | 39.96732 | -119.80774 | 37989 ft | 474 kts | 242° |
| 2026-05-04 18:18 | 39.92217 | -119.92314 | 37987 ft | 475 kts | 242° |
| 2026-05-04 18:18 | 39.89212 | -119.99984 | 38002 ft | 475 kts | 242° |
| 2026-05-04 18:19 | 39.84718 | -120.11415 | 37997 ft | 474 kts | 242° |
| 2026-05-04 18:19 | 39.81665 | -120.19010 | 37998 ft | 474 kts | 239° |
| 2026-05-04 18:20 | 39.78046 | -120.26138 | 38005 ft | 472 kts | 234° |
| 2026-05-04 18:20 | 39.74313 | -120.33156 | 38001 ft | 472 kts | 234° |
| 2026-05-04 18:21 | 39.70591 | -120.40178 | 38014 ft | 471 kts | 235° |
| 2026-05-04 18:21 | 39.66895 | -120.47192 | 38032 ft | 471 kts | 235° |
| 2026-05-04 18:22 | 39.63193 | -120.54210 | 38039 ft | 471 kts | 235° |
| 2026-05-04 18:22 | 39.59490 | -120.61218 | 38039 ft | 471 kts | 235° |
| 2026-05-04 18:23 | 39.58038 | -120.63964 | 38042 ft | 471 kts | 235° |
| 2026-05-04 18:23 | 39.56569 | -120.66738 | 38049 ft | 472 kts | 235° |
| 2026-05-04 18:24 | 39.52853 | -120.73745 | 38050 ft | 472 kts | 235° |
| 2026-05-04 18:24 | 39.49136 | -120.80727 | 38053 ft | 471 kts | 235° |
| 2026-05-04 18:25 | 39.45418 | -120.87703 | 38056 ft | 470 kts | 235° |
| 2026-05-04 18:25 | 39.41703 | -120.94668 | 38057 ft | 471 kts | 234° |
| 2026-05-04 18:26 | 39.37969 | -121.01640 | 38055 ft | 472 kts | 234° |
| 2026-05-04 18:26 | 39.34231 | -121.08611 | 38053 ft | 472 kts | 234° |
| 2026-05-04 18:27 | 39.30382 | -121.15494 | 38045 ft | 473 kts | 232° |
| 2026-05-04 18:27 | 39.26405 | -121.22249 | 38043 ft | 473 kts | 232° |
| 2026-05-04 18:28 | 39.22431 | -121.29003 | 38049 ft | 474 kts | 232° |
| 2026-05-04 18:28 | 39.18466 | -121.35788 | 38047 ft | 474 kts | 232° |
| 2026-05-04 18:29 | 39.14503 | -121.42579 | 38047 ft | 474 kts | 232° |
| 2026-05-04 18:29 | 39.10540 | -121.49347 | 38045 ft | 474 kts | 232° |
| 2026-05-04 18:30 | 39.04582 | -121.59501 | 38055 ft | 473 kts | 232° |
| 2026-05-04 18:31 | 39.00637 | -121.66200 | 38057 ft | 472 kts | 232° |
| 2026-05-04 18:31 | 38.96643 | -121.72973 | 38055 ft | 472 kts | 232° |
| 2026-05-04 18:32 | 38.92699 | -121.79647 | 38058 ft | 472 kts | 232° |
| 2026-05-04 18:32 | 38.88726 | -121.86354 | 38052 ft | 471 kts | 232° |
| 2026-05-04 18:33 | 38.84751 | -121.93053 | 37533 ft | 476 kts | 232° |
| 2026-05-04 18:33 | 38.82742 | -121.96432 | 36895 ft | 476 kts | 232° |
| 2026-05-04 18:33 | 38.80735 | -121.99804 | 36178 ft | 474 kts | 232° |
| 2026-05-04 18:33 | 38.78738 | -122.03155 | 35395 ft | 474 kts | 232° |
| 2026-05-04 18:34 | 38.76725 | -122.06533 | 34506 ft | 477 kts | 232° |
| 2026-05-04 18:34 | 38.74702 | -122.09923 | 33582 ft | 481 kts | 232° |
| 2026-05-04 18:34 | 38.72666 | -122.13330 | 32636 ft | 484 kts | 232° |
| 2026-05-04 18:34 | 38.70611 | -122.16765 | 31639 ft | 487 kts | 232° |
| 2026-05-04 18:35 | 38.68556 | -122.20201 | 30947 ft | 485 kts | 232° |
| 2026-05-04 18:35 | 38.66511 | -122.23614 | 30240 ft | 482 kts | 232° |
| 2026-05-04 18:35 | 38.64473 | -122.27009 | 29561 ft | 479 kts | 232° |
| 2026-05-04 18:35 | 38.62450 | -122.30375 | 28895 ft | 477 kts | 232° |
| 2026-05-04 18:36 | 38.60432 | -122.33732 | 28224 ft | 475 kts | 232° |
| 2026-05-04 18:36 | 38.58431 | -122.37059 | 27705 ft | 469 kts | 232° |
| 2026-05-04 18:36 | 38.56470 | -122.40315 | 27541 ft | 455 kts | 232° |
| 2026-05-04 18:36 | 38.54564 | -122.43463 | 27342 ft | 443 kts | 231° |
| 2026-05-04 18:37 | 38.52477 | -122.46331 | 26851 ft | 439 kts | 220° |
| 2026-05-04 18:37 | 38.50056 | -122.48669 | 26332 ft | 435 kts | 210° |
| 2026-05-04 18:37 | 38.47383 | -122.50411 | 25818 ft | 430 kts | 200° |
| 2026-05-04 18:37 | 38.44538 | -122.51518 | 25290 ft | 425 kts | 189° |
| 2026-05-04 18:38 | 38.41624 | -122.51957 | 24818 ft | 419 kts | 179° |
| 2026-05-04 18:38 | 38.38738 | -122.51907 | 24422 ft | 412 kts | 175° |
| 2026-05-04 18:38 | 38.35898 | -122.51702 | 24083 ft | 405 kts | 174° |
| 2026-05-04 18:38 | 38.33108 | -122.51461 | 23797 ft | 398 kts | 173° |
| 2026-05-04 18:39 | 38.30368 | -122.51218 | 23465 ft | 395 kts | 173° |
| 2026-05-04 18:39 | 38.27619 | -122.50968 | 23049 ft | 397 kts | 173° |
| 2026-05-04 18:39 | 38.24855 | -122.50707 | 22656 ft | 398 kts | 173° |
| 2026-05-04 18:39 | 38.22135 | -122.50442 | 22347 ft | 397 kts | 173° |
| 2026-05-04 18:40 | 38.19353 | -122.50166 | 22081 ft | 394 kts | 173° |
| 2026-05-04 18:40 | 38.16628 | -122.49893 | 21831 ft | 391 kts | 173° |
| 2026-05-04 18:40 | 38.13929 | -122.49617 | 21549 ft | 389 kts | 173° |
| 2026-05-04 18:40 | 38.11265 | -122.49341 | 21266 ft | 388 kts | 173° |
| 2026-05-04 18:41 | 38.08589 | -122.49059 | 20982 ft | 386 kts | 173° |
| 2026-05-04 18:41 | 38.05912 | -122.48772 | 20720 ft | 384 kts | 173° |
| 2026-05-04 18:41 | 38.03260 | -122.48483 | 20470 ft | 382 kts | 173° |
| 2026-05-04 18:41 | 38.00620 | -122.48190 | 20191 ft | 380 kts | 173° |
| 2026-05-04 18:42 | 37.97961 | -122.47892 | 19910 ft | 378 kts | 173° |
| 2026-05-04 18:42 | 37.95385 | -122.47598 | 19660 ft | 376 kts | 173° |
| 2026-05-04 18:42 | 37.92750 | -122.47290 | 19394 ft | 374 kts | 173° |
| 2026-05-04 18:42 | 37.90201 | -122.46988 | 19138 ft | 372 kts | 173° |
| 2026-05-04 18:43 | 37.88540 | -122.46788 | 18968 ft | 371 kts | 173° |
| 2026-05-04 18:43 | 37.86696 | -122.46563 | 18784 ft | 370 kts | 173° |
| 2026-05-04 18:44 | 37.84141 | -122.46246 | 18526 ft | 368 kts | 173° |
| 2026-05-04 18:44 | 37.82424 | -122.46030 | 18338 ft | 367 kts | 173° |
| 2026-05-04 18:44 | 37.79076 | -122.45591 | 17983 ft | 362 kts | 171° |
| 2026-05-04 18:44 | 37.76685 | -122.44746 | 17886 ft | 353 kts | 154° |
| 2026-05-04 18:45 | 37.74657 | -122.43085 | 17840 ft | 344 kts | 136° |
| 2026-05-04 18:45 | 37.73198 | -122.40771 | 17721 ft | 334 kts | 120° |
| 2026-05-04 18:45 | 37.72128 | -122.38185 | 17344 ft | 331 kts | 115° |
| 2026-05-04 18:45 | 37.71160 | -122.35535 | 16852 ft | 332 kts | 113° |
| 2026-05-04 18:46 | 37.70222 | -122.32888 | 16349 ft | 327 kts | 113° |
| 2026-05-04 18:46 | 37.69306 | -122.30293 | 15728 ft | 320 kts | 113° |
| 2026-05-04 18:46 | 37.68413 | -122.27741 | 15099 ft | 314 kts | 113° |
| 2026-05-04 18:46 | 37.67541 | -122.25235 | 14472 ft | 310 kts | 113° |
| 2026-05-04 18:47 | 37.66682 | -122.22765 | 13846 ft | 305 kts | 113° |
| 2026-05-04 18:47 | 37.65835 | -122.20331 | 13230 ft | 302 kts | 113° |
| 2026-05-04 18:47 | 37.65001 | -122.17930 | 12589 ft | 294 kts | 113° |
| 2026-05-04 18:47 | 37.64195 | -122.15605 | 11951 ft | 285 kts | 113° |
| 2026-05-04 18:48 | 37.63413 | -122.13346 | 11318 ft | 276 kts | 112° |
| 2026-05-04 18:48 | 37.62751 | -122.11110 | 10656 ft | 270 kts | 100° |
| 2026-05-04 18:48 | 37.62726 | -122.08783 | 10036 ft | 264 kts | 83° |
| 2026-05-04 18:48 | 37.62946 | -122.06503 | 9418 ft | 260 kts | 83° |
| 2026-05-04 18:49 | 37.63167 | -122.04265 | 8875 ft | 253 kts | 83° |
| 2026-05-04 18:49 | 37.63387 | -122.02100 | 8369 ft | 245 kts | 83° |
| 2026-05-04 18:49 | 37.63596 | -122.00077 | 7870 ft | 238 kts | 86° |
| 2026-05-04 18:49 | 37.63362 | -121.98027 | 7420 ft | 230 kts | 116° |
| 2026-05-04 18:50 | 37.62310 | -121.96524 | 6953 ft | 236 kts | 150° |
| 2026-05-04 18:50 | 37.60730 | -121.95977 | 6472 ft | 241 kts | 182° |
| 2026-05-04 18:50 | 37.59140 | -121.96564 | 6077 ft | 238 kts | 208° |
| 2026-05-04 18:50 | 37.57686 | -121.97564 | 5723 ft | 238 kts | 209° |
| 2026-05-04 18:51 | 37.56231 | -121.98566 | 5387 ft | 237 kts | 209° |
| 2026-05-04 18:51 | 37.54804 | -121.99556 | 5144 ft | 233 kts | 210° |
| 2026-05-04 18:51 | 37.53462 | -122.00675 | 4875 ft | 229 kts | 220° |
| 2026-05-04 18:51 | 37.52379 | -122.02116 | 4615 ft | 225 kts | 233° |
| 2026-05-04 18:52 | 37.51583 | -122.03786 | 4352 ft | 221 kts | 245° |
| 2026-05-04 18:52 | 37.51115 | -122.05605 | 4098 ft | 218 kts | 261° |
| 2026-05-04 18:52 | 37.51032 | -122.07483 | 3880 ft | 211 kts | 272° |
| 2026-05-04 18:52 | 37.51207 | -122.09260 | 3672 ft | 201 kts | 281° |
| 2026-05-04 18:53 | 37.51538 | -122.10947 | 3465 ft | 194 kts | 286° |
| 2026-05-04 18:53 | 37.51981 | -122.12565 | 3349 ft | 198 kts | 290° |
| 2026-05-04 18:53 | 37.52468 | -122.14200 | 3237 ft | 200 kts | 291° |
| 2026-05-04 18:53 | 37.53034 | -122.15800 | 3124 ft | 199 kts | 296° |
| 2026-05-04 18:54 | 37.53655 | -122.17347 | 3057 ft | 198 kts | 297° |
| 2026-05-04 18:54 | 37.54294 | -122.18881 | 2949 ft | 200 kts | 297° |
| 2026-05-04 18:54 | 37.54950 | -122.20446 | 2695 ft | 202 kts | 297° |
| 2026-05-04 18:54 | 37.55595 | -122.21980 | 2422 ft | 192 kts | 297° |
| 2026-05-04 18:55 | 37.56194 | -122.23409 | 2169 ft | 176 kts | 297° |
| 2026-05-04 18:55 | 37.57214 | -122.25842 | 1775 ft | 153 kts | 297° |
| 2026-05-04 18:55 | 37.57711 | -122.27026 | 1577 ft | 152 kts | 297° |
| 2026-05-04 18:56 | 37.58198 | -122.28191 | 1369 ft | 149 kts | 297° |
| 2026-05-04 18:56 | 37.58680 | -122.29339 | 1170 ft | 148 kts | 297° |
| 2026-05-04 18:56 | 37.59160 | -122.30485 | 979 ft | 147 kts | 296° |
| 2026-05-04 18:56 | 37.59640 | -122.31614 | 757 ft | 145 kts | 297° |
| 2026-05-04 18:57 | 37.60093 | -122.32713 | 564 ft | 138 kts | 295° |
| 2026-05-04 18:57 | 37.60532 | -122.33784 | 390 ft | 136 kts | 297° |
| 2026-05-04 18:57 | 37.60983 | -122.34834 | 227 ft | 136 kts | 297° |
| 2026-05-04 18:57 | 37.61426 | -122.35889 | 56 ft | 137 kts | 297° |
| 2026-05-04 18:58 | 37.61834 | -122.36866 | 29 ft | 114 kts | 298° |
| 2026-05-04 18:58 | 37.62125 | -122.37554 | 28 ft | 66 kts | 298° |
| 2026-05-04 18:58 | 37.62329 | -122.38043 | 31 ft | 46 kts | 298° |
| 2026-05-04 18:58 | 37.62446 | -122.38321 | 29 ft | 30 kts | 298° |
| 2026-05-04 18:59 | 37.62503 | -122.38548 | 25 ft | 22 kts | 274° |
| 2026-05-04 18:59 | 37.62501 | -122.38745 | 28 ft | 22 kts | 268° |
| 2026-05-04 18:59 | 37.62435 | -122.38888 | 26 ft | 20 kts | 210° |
| 2026-05-04 18:59 | 37.62367 | -122.38934 | 27 ft | 0 kts | 208° |
| 2026-05-04 19:00 | 37.62360 | -122.38941 | 30 ft | 6 kts | 217° |
| 2026-05-04 19:00 | 37.62328 | -122.39028 | 28 ft | 13 kts | 251° |
| 2026-05-04 19:00 | 37.62309 | -122.39100 | 28 ft | 13 kts | 252° |
| 2026-05-04 19:00 | 37.62267 | -122.39180 | 27 ft | 11 kts | 218° |
| 2026-05-04 19:01 | 37.62203 | -122.39226 | 30 ft | 9 kts | 208° |
| 2026-05-04 19:01 | 37.62145 | -122.39265 | 25 ft | 10 kts | 208° |
| 2026-05-04 19:01 | 37.62084 | -122.39305 | 30 ft | 11 kts | 208° |
| 2026-05-04 19:01 | 37.62015 | -122.39324 | 29 ft | 11 kts | 154° |
| 2026-05-04 19:02 | 37.61955 | -122.39306 | 26 ft | 8 kts | 199° |
| 2026-05-04 19:02 | 37.61925 | -122.39324 | 26 ft | 3 kts | 207° |
| 2026-05-04 19:02 | 37.61921 | -122.39327 | 29 ft | 0 kts | 207° |
| 2026-05-04 19:02 | 37.61920 | -122.39327 | 29 ft | 0 kts | 207° |